<?xml version="1.0" encoding="UTF-8" standalone="no" ?>
<gpx xmlns="http://www.topografix.com/GPX/1/1" xmlns:xsi="http://www.w3.org/2001/XMLSchema-instance" xsi:schemaLocation="http://www.topografix.com/GPX/1/1 http://www.topografix.com/GPX/1/1/gpx.xsd" version="1.1" creator="VisuGPX - https://www.visugpx.com">
  <metadata>
    <name>2014-02-16 Combe de Tardevant</name>
  </metadata>
  <trk>
    <name><![CDATA[2014-02-16 Combe de Tardevant]]></name>
    <trkseg>
      <trkpt lat="45.92152" lon="6.48584">
        <ele>1457</ele>
        <time>2014-02-16T09:21:56Z</time>
      </trkpt>
      <trkpt lat="45.92142" lon="6.48605">
        <ele>1457.5</ele>
        <time>2014-02-16T09:22:16Z</time>
      </trkpt>
      <trkpt lat="45.92132" lon="6.48628">
        <ele>1458.9</ele>
        <time>2014-02-16T09:22:40Z</time>
      </trkpt>
      <trkpt lat="45.92128" lon="6.48637">
        <ele>1459.9</ele>
        <time>2014-02-16T09:22:59Z</time>
      </trkpt>
      <trkpt lat="45.92126" lon="6.48659">
        <ele>1461.3</ele>
        <time>2014-02-16T09:23:15Z</time>
      </trkpt>
      <trkpt lat="45.92128" lon="6.48672">
        <ele>1463.7</ele>
        <time>2014-02-16T09:23:26Z</time>
      </trkpt>
      <trkpt lat="45.92144" lon="6.48695">
        <ele>1463.7</ele>
        <time>2014-02-16T09:23:46Z</time>
      </trkpt>
      <trkpt lat="45.92161" lon="6.4873">
        <ele>1462.8</ele>
        <time>2014-02-16T09:24:07Z</time>
      </trkpt>
      <trkpt lat="45.92175" lon="6.4878">
        <ele>1459.9</ele>
        <time>2014-02-16T09:24:25Z</time>
      </trkpt>
      <trkpt lat="45.92179" lon="6.48816">
        <ele>1458</ele>
        <time>2014-02-16T09:24:41Z</time>
      </trkpt>
      <trkpt lat="45.92179" lon="6.4882">
        <ele>1457.5</ele>
        <time>2014-02-16T09:24:42Z</time>
      </trkpt>
      <trkpt lat="45.92165" lon="6.48859">
        <ele>1454.1</ele>
        <time>2014-02-16T09:24:56Z</time>
      </trkpt>
      <trkpt lat="45.92165" lon="6.48869">
        <ele>1454.1</ele>
        <time>2014-02-16T09:25:00Z</time>
      </trkpt>
      <trkpt lat="45.9218" lon="6.48898">
        <ele>1455.6</ele>
        <time>2014-02-16T09:25:22Z</time>
      </trkpt>
      <trkpt lat="45.922" lon="6.48923">
        <ele>1458.9</ele>
        <time>2014-02-16T09:25:45Z</time>
      </trkpt>
      <trkpt lat="45.92219" lon="6.48941">
        <ele>1461.3</ele>
        <time>2014-02-16T09:26:09Z</time>
      </trkpt>
      <trkpt lat="45.92229" lon="6.48949">
        <ele>1462.8</ele>
        <time>2014-02-16T09:26:27Z</time>
      </trkpt>
      <trkpt lat="45.9225" lon="6.48968">
        <ele>1464.7</ele>
        <time>2014-02-16T09:26:50Z</time>
      </trkpt>
      <trkpt lat="45.92266" lon="6.48983">
        <ele>1466.1</ele>
        <time>2014-02-16T09:27:11Z</time>
      </trkpt>
      <trkpt lat="45.92284" lon="6.48999">
        <ele>1470</ele>
        <time>2014-02-16T09:27:34Z</time>
      </trkpt>
      <trkpt lat="45.92303" lon="6.49014">
        <ele>1474.8</ele>
        <time>2014-02-16T09:27:58Z</time>
      </trkpt>
      <trkpt lat="45.92319" lon="6.49044">
        <ele>1481.5</ele>
        <time>2014-02-16T09:28:33Z</time>
      </trkpt>
      <trkpt lat="45.92336" lon="6.49056">
        <ele>1484.9</ele>
        <time>2014-02-16T09:28:57Z</time>
      </trkpt>
      <trkpt lat="45.92353" lon="6.49068">
        <ele>1488.3</ele>
        <time>2014-02-16T09:29:22Z</time>
      </trkpt>
      <trkpt lat="45.92371" lon="6.49082">
        <ele>1491.6</ele>
        <time>2014-02-16T09:29:48Z</time>
      </trkpt>
      <trkpt lat="45.92394" lon="6.49098">
        <ele>1495.5</ele>
        <time>2014-02-16T09:30:19Z</time>
      </trkpt>
      <trkpt lat="45.92413" lon="6.49106">
        <ele>1499.8</ele>
        <time>2014-02-16T09:30:48Z</time>
      </trkpt>
      <trkpt lat="45.92422" lon="6.4911">
        <ele>1500.8</ele>
        <time>2014-02-16T09:31:09Z</time>
      </trkpt>
      <trkpt lat="45.92449" lon="6.49121">
        <ele>1505.1</ele>
        <time>2014-02-16T09:31:44Z</time>
      </trkpt>
      <trkpt lat="45.92463" lon="6.49145">
        <ele>1508.9</ele>
        <time>2014-02-16T09:32:11Z</time>
      </trkpt>
      <trkpt lat="45.92463" lon="6.49146">
        <ele>1508.4</ele>
        <time>2014-02-16T09:32:30Z</time>
      </trkpt>
      <trkpt lat="45.92463" lon="6.49146">
        <ele>1505.6</ele>
        <time>2014-02-16T09:33:06Z</time>
      </trkpt>
      <trkpt lat="45.92464" lon="6.49145">
        <ele>1504.6</ele>
        <time>2014-02-16T09:33:53Z</time>
      </trkpt>
      <trkpt lat="45.92464" lon="6.49144">
        <ele>1505.1</ele>
        <time>2014-02-16T09:36:12Z</time>
      </trkpt>
      <trkpt lat="45.92465" lon="6.49147">
        <ele>1505.6</ele>
        <time>2014-02-16T09:37:12Z</time>
      </trkpt>
      <trkpt lat="45.92464" lon="6.49147">
        <ele>1505.6</ele>
        <time>2014-02-16T09:37:45Z</time>
      </trkpt>
      <trkpt lat="45.92475" lon="6.4916">
        <ele>1505.6</ele>
        <time>2014-02-16T09:38:02Z</time>
      </trkpt>
      <trkpt lat="45.92495" lon="6.49188">
        <ele>1504.1</ele>
        <time>2014-02-16T09:38:21Z</time>
      </trkpt>
      <trkpt lat="45.92512" lon="6.49197">
        <ele>1503.6</ele>
        <time>2014-02-16T09:38:36Z</time>
      </trkpt>
      <trkpt lat="45.92537" lon="6.49211">
        <ele>1503.2</ele>
        <time>2014-02-16T09:38:59Z</time>
      </trkpt>
      <trkpt lat="45.92558" lon="6.49216">
        <ele>1502.7</ele>
        <time>2014-02-16T09:39:16Z</time>
      </trkpt>
      <trkpt lat="45.9258" lon="6.4922">
        <ele>1502.7</ele>
        <time>2014-02-16T09:39:33Z</time>
      </trkpt>
      <trkpt lat="45.92602" lon="6.49224">
        <ele>1499.8</ele>
        <time>2014-02-16T09:39:47Z</time>
      </trkpt>
      <trkpt lat="45.92622" lon="6.49234">
        <ele>1498.4</ele>
        <time>2014-02-16T09:40:02Z</time>
      </trkpt>
      <trkpt lat="45.92639" lon="6.49251">
        <ele>1496.4</ele>
        <time>2014-02-16T09:40:18Z</time>
      </trkpt>
      <trkpt lat="45.92661" lon="6.49264">
        <ele>1494.5</ele>
        <time>2014-02-16T09:40:29Z</time>
      </trkpt>
      <trkpt lat="45.92684" lon="6.49279">
        <ele>1493.5</ele>
        <time>2014-02-16T09:40:48Z</time>
      </trkpt>
      <trkpt lat="45.92702" lon="6.49301">
        <ele>1495.9</ele>
        <time>2014-02-16T09:41:09Z</time>
      </trkpt>
      <trkpt lat="45.92712" lon="6.49334">
        <ele>1496.4</ele>
        <time>2014-02-16T09:41:33Z</time>
      </trkpt>
      <trkpt lat="45.9272" lon="6.49371">
        <ele>1499.8</ele>
        <time>2014-02-16T09:42:02Z</time>
      </trkpt>
      <trkpt lat="45.92721" lon="6.49373">
        <ele>1499.8</ele>
        <time>2014-02-16T09:42:04Z</time>
      </trkpt>
      <trkpt lat="45.92734" lon="6.49397">
        <ele>1500.3</ele>
        <time>2014-02-16T09:42:24Z</time>
      </trkpt>
      <trkpt lat="45.9274" lon="6.49421">
        <ele>1500.8</ele>
        <time>2014-02-16T09:42:43Z</time>
      </trkpt>
      <trkpt lat="45.92751" lon="6.4945">
        <ele>1500.3</ele>
        <time>2014-02-16T09:43:08Z</time>
      </trkpt>
      <trkpt lat="45.92757" lon="6.4946">
        <ele>1500.8</ele>
        <time>2014-02-16T09:43:23Z</time>
      </trkpt>
      <trkpt lat="45.9276" lon="6.49462">
        <ele>1500.8</ele>
        <time>2014-02-16T09:43:50Z</time>
      </trkpt>
      <trkpt lat="45.92757" lon="6.49463">
        <ele>1500.8</ele>
        <time>2014-02-16T09:44:13Z</time>
      </trkpt>
      <trkpt lat="45.92751" lon="6.49462">
        <ele>1501.2</ele>
        <time>2014-02-16T09:44:20Z</time>
      </trkpt>
      <trkpt lat="45.92734" lon="6.49459">
        <ele>1502.7</ele>
        <time>2014-02-16T09:44:37Z</time>
      </trkpt>
      <trkpt lat="45.92728" lon="6.49463">
        <ele>1501.7</ele>
        <time>2014-02-16T09:44:53Z</time>
      </trkpt>
      <trkpt lat="45.92725" lon="6.49465">
        <ele>1501.2</ele>
        <time>2014-02-16T09:44:56Z</time>
      </trkpt>
      <trkpt lat="45.92719" lon="6.49463">
        <ele>1500.3</ele>
        <time>2014-02-16T09:45:02Z</time>
      </trkpt>
      <trkpt lat="45.92696" lon="6.49454">
        <ele>1496.9</ele>
        <time>2014-02-16T09:45:23Z</time>
      </trkpt>
      <trkpt lat="45.92683" lon="6.4946">
        <ele>1495</ele>
        <time>2014-02-16T09:45:41Z</time>
      </trkpt>
      <trkpt lat="45.92676" lon="6.49468">
        <ele>1495.5</ele>
        <time>2014-02-16T09:46:53Z</time>
      </trkpt>
      <trkpt lat="45.9267" lon="6.49474">
        <ele>1495</ele>
        <time>2014-02-16T09:47:26Z</time>
      </trkpt>
      <trkpt lat="45.92656" lon="6.49492">
        <ele>1495</ele>
        <time>2014-02-16T09:47:47Z</time>
      </trkpt>
      <trkpt lat="45.92649" lon="6.4951">
        <ele>1497.4</ele>
        <time>2014-02-16T09:48:08Z</time>
      </trkpt>
      <trkpt lat="45.92648" lon="6.49512">
        <ele>1497.4</ele>
        <time>2014-02-16T09:48:10Z</time>
      </trkpt>
      <trkpt lat="45.92643" lon="6.49535">
        <ele>1498.4</ele>
        <time>2014-02-16T09:48:34Z</time>
      </trkpt>
      <trkpt lat="45.92642" lon="6.49546">
        <ele>1499.8</ele>
        <time>2014-02-16T09:48:49Z</time>
      </trkpt>
      <trkpt lat="45.92639" lon="6.49571">
        <ele>1499.8</ele>
        <time>2014-02-16T09:49:10Z</time>
      </trkpt>
      <trkpt lat="45.9264" lon="6.49599">
        <ele>1501.2</ele>
        <time>2014-02-16T09:49:32Z</time>
      </trkpt>
      <trkpt lat="45.92638" lon="6.49626">
        <ele>1504.1</ele>
        <time>2014-02-16T09:49:53Z</time>
      </trkpt>
      <trkpt lat="45.92629" lon="6.49655">
        <ele>1507</ele>
        <time>2014-02-16T09:50:17Z</time>
      </trkpt>
      <trkpt lat="45.92628" lon="6.49684">
        <ele>1512.3</ele>
        <time>2014-02-16T09:50:41Z</time>
      </trkpt>
      <trkpt lat="45.92628" lon="6.49692">
        <ele>1513.3</ele>
        <time>2014-02-16T09:50:47Z</time>
      </trkpt>
      <trkpt lat="45.92637" lon="6.49716">
        <ele>1517.6</ele>
        <time>2014-02-16T09:51:09Z</time>
      </trkpt>
      <trkpt lat="45.92645" lon="6.49734">
        <ele>1519</ele>
        <time>2014-02-16T09:51:30Z</time>
      </trkpt>
      <trkpt lat="45.92652" lon="6.49748">
        <ele>1519.5</ele>
        <time>2014-02-16T09:51:48Z</time>
      </trkpt>
      <trkpt lat="45.92659" lon="6.49774">
        <ele>1524.3</ele>
        <time>2014-02-16T09:52:17Z</time>
      </trkpt>
      <trkpt lat="45.9266" lon="6.49787">
        <ele>1526.2</ele>
        <time>2014-02-16T09:52:33Z</time>
      </trkpt>
      <trkpt lat="45.92665" lon="6.498">
        <ele>1528.2</ele>
        <time>2014-02-16T09:52:48Z</time>
      </trkpt>
      <trkpt lat="45.92671" lon="6.4982">
        <ele>1530.1</ele>
        <time>2014-02-16T09:53:06Z</time>
      </trkpt>
      <trkpt lat="45.92674" lon="6.49831">
        <ele>1532.5</ele>
        <time>2014-02-16T09:53:20Z</time>
      </trkpt>
      <trkpt lat="45.92675" lon="6.49841">
        <ele>1533.4</ele>
        <time>2014-02-16T09:53:33Z</time>
      </trkpt>
      <trkpt lat="45.92677" lon="6.49847">
        <ele>1533.9</ele>
        <time>2014-02-16T09:53:46Z</time>
      </trkpt>
      <trkpt lat="45.9268" lon="6.49869">
        <ele>1531</ele>
        <time>2014-02-16T09:54:04Z</time>
      </trkpt>
      <trkpt lat="45.92683" lon="6.49885">
        <ele>1531.5</ele>
        <time>2014-02-16T09:54:20Z</time>
      </trkpt>
      <trkpt lat="45.92686" lon="6.49899">
        <ele>1531.5</ele>
        <time>2014-02-16T09:54:34Z</time>
      </trkpt>
      <trkpt lat="45.92688" lon="6.49911">
        <ele>1532</ele>
        <time>2014-02-16T09:54:47Z</time>
      </trkpt>
      <trkpt lat="45.92697" lon="6.49921">
        <ele>1534.9</ele>
        <time>2014-02-16T09:55:04Z</time>
      </trkpt>
      <trkpt lat="45.92701" lon="6.49942">
        <ele>1535.8</ele>
        <time>2014-02-16T09:55:22Z</time>
      </trkpt>
      <trkpt lat="45.92708" lon="6.49958">
        <ele>1537.3</ele>
        <time>2014-02-16T09:55:41Z</time>
      </trkpt>
      <trkpt lat="45.92709" lon="6.49973">
        <ele>1537.8</ele>
        <time>2014-02-16T09:55:56Z</time>
      </trkpt>
      <trkpt lat="45.92711" lon="6.49992">
        <ele>1538.7</ele>
        <time>2014-02-16T09:56:16Z</time>
      </trkpt>
      <trkpt lat="45.92714" lon="6.49996">
        <ele>1539.7</ele>
        <time>2014-02-16T09:56:39Z</time>
      </trkpt>
      <trkpt lat="45.92713" lon="6.49995">
        <ele>1540.2</ele>
        <time>2014-02-16T09:57:14Z</time>
      </trkpt>
      <trkpt lat="45.92706" lon="6.49991">
        <ele>1541.6</ele>
        <time>2014-02-16T09:57:53Z</time>
      </trkpt>
      <trkpt lat="45.92693" lon="6.49989">
        <ele>1544.5</ele>
        <time>2014-02-16T09:58:13Z</time>
      </trkpt>
      <trkpt lat="45.9269" lon="6.49995">
        <ele>1547.9</ele>
        <time>2014-02-16T09:58:31Z</time>
      </trkpt>
      <trkpt lat="45.92688" lon="6.50009">
        <ele>1550.7</ele>
        <time>2014-02-16T09:58:47Z</time>
      </trkpt>
      <trkpt lat="45.92688" lon="6.50025">
        <ele>1553.1</ele>
        <time>2014-02-16T09:59:05Z</time>
      </trkpt>
      <trkpt lat="45.92693" lon="6.50029">
        <ele>1555.6</ele>
        <time>2014-02-16T09:59:19Z</time>
      </trkpt>
      <trkpt lat="45.92699" lon="6.50038">
        <ele>1558.4</ele>
        <time>2014-02-16T09:59:34Z</time>
      </trkpt>
      <trkpt lat="45.92699" lon="6.50047">
        <ele>1559.9</ele>
        <time>2014-02-16T09:59:47Z</time>
      </trkpt>
      <trkpt lat="45.92694" lon="6.5005">
        <ele>1560.8</ele>
        <time>2014-02-16T09:59:58Z</time>
      </trkpt>
      <trkpt lat="45.92688" lon="6.50057">
        <ele>1564.2</ele>
        <time>2014-02-16T10:00:18Z</time>
      </trkpt>
      <trkpt lat="45.92679" lon="6.5006">
        <ele>1567.1</ele>
        <time>2014-02-16T10:00:33Z</time>
      </trkpt>
      <trkpt lat="45.92674" lon="6.50055">
        <ele>1567.6</ele>
        <time>2014-02-16T10:00:47Z</time>
      </trkpt>
      <trkpt lat="45.92678" lon="6.50066">
        <ele>1570.5</ele>
        <time>2014-02-16T10:01:01Z</time>
      </trkpt>
      <trkpt lat="45.92682" lon="6.50081">
        <ele>1573.3</ele>
        <time>2014-02-16T10:01:16Z</time>
      </trkpt>
      <trkpt lat="45.92687" lon="6.50095">
        <ele>1574.3</ele>
        <time>2014-02-16T10:01:35Z</time>
      </trkpt>
      <trkpt lat="45.92695" lon="6.50111">
        <ele>1577.7</ele>
        <time>2014-02-16T10:01:53Z</time>
      </trkpt>
      <trkpt lat="45.92696" lon="6.50124">
        <ele>1582</ele>
        <time>2014-02-16T10:02:09Z</time>
      </trkpt>
      <trkpt lat="45.92703" lon="6.50126">
        <ele>1583.4</ele>
        <time>2014-02-16T10:02:28Z</time>
      </trkpt>
      <trkpt lat="45.92702" lon="6.50131">
        <ele>1584.4</ele>
        <time>2014-02-16T10:02:40Z</time>
      </trkpt>
      <trkpt lat="45.92704" lon="6.50136">
        <ele>1586.3</ele>
        <time>2014-02-16T10:02:50Z</time>
      </trkpt>
      <trkpt lat="45.92709" lon="6.50142">
        <ele>1589.2</ele>
        <time>2014-02-16T10:03:01Z</time>
      </trkpt>
      <trkpt lat="45.92713" lon="6.50154">
        <ele>1590.6</ele>
        <time>2014-02-16T10:03:17Z</time>
      </trkpt>
      <trkpt lat="45.9272" lon="6.50165">
        <ele>1593</ele>
        <time>2014-02-16T10:03:33Z</time>
      </trkpt>
      <trkpt lat="45.92735" lon="6.50178">
        <ele>1596.4</ele>
        <time>2014-02-16T10:03:54Z</time>
      </trkpt>
      <trkpt lat="45.92745" lon="6.50188">
        <ele>1599.3</ele>
        <time>2014-02-16T10:04:10Z</time>
      </trkpt>
      <trkpt lat="45.92753" lon="6.50205">
        <ele>1599.8</ele>
        <time>2014-02-16T10:04:32Z</time>
      </trkpt>
      <trkpt lat="45.92763" lon="6.50214">
        <ele>1601.7</ele>
        <time>2014-02-16T10:04:49Z</time>
      </trkpt>
      <trkpt lat="45.92773" lon="6.50224">
        <ele>1602.7</ele>
        <time>2014-02-16T10:05:03Z</time>
      </trkpt>
      <trkpt lat="45.92778" lon="6.50239">
        <ele>1604.6</ele>
        <time>2014-02-16T10:05:21Z</time>
      </trkpt>
      <trkpt lat="45.9278" lon="6.50251">
        <ele>1605.5</ele>
        <time>2014-02-16T10:05:34Z</time>
      </trkpt>
      <trkpt lat="45.92781" lon="6.50266">
        <ele>1607.9</ele>
        <time>2014-02-16T10:05:49Z</time>
      </trkpt>
      <trkpt lat="45.92791" lon="6.50281">
        <ele>1611.3</ele>
        <time>2014-02-16T10:06:09Z</time>
      </trkpt>
      <trkpt lat="45.92796" lon="6.50293">
        <ele>1614.2</ele>
        <time>2014-02-16T10:06:27Z</time>
      </trkpt>
      <trkpt lat="45.92798" lon="6.50302">
        <ele>1615.6</ele>
        <time>2014-02-16T10:06:39Z</time>
      </trkpt>
      <trkpt lat="45.92808" lon="6.50309">
        <ele>1618</ele>
        <time>2014-02-16T10:06:56Z</time>
      </trkpt>
      <trkpt lat="45.92818" lon="6.50321">
        <ele>1620.9</ele>
        <time>2014-02-16T10:07:14Z</time>
      </trkpt>
      <trkpt lat="45.92823" lon="6.5033">
        <ele>1624.3</ele>
        <time>2014-02-16T10:07:30Z</time>
      </trkpt>
      <trkpt lat="45.92831" lon="6.50338">
        <ele>1630.1</ele>
        <time>2014-02-16T10:07:48Z</time>
      </trkpt>
      <trkpt lat="45.92837" lon="6.50347">
        <ele>1633.4</ele>
        <time>2014-02-16T10:08:04Z</time>
      </trkpt>
      <trkpt lat="45.92834" lon="6.50353">
        <ele>1635.8</ele>
        <time>2014-02-16T10:08:18Z</time>
      </trkpt>
      <trkpt lat="45.92841" lon="6.50355">
        <ele>1637.7</ele>
        <time>2014-02-16T10:08:29Z</time>
      </trkpt>
      <trkpt lat="45.9285" lon="6.50357">
        <ele>1640.1</ele>
        <time>2014-02-16T10:08:43Z</time>
      </trkpt>
      <trkpt lat="45.92858" lon="6.50372">
        <ele>1645</ele>
        <time>2014-02-16T10:09:08Z</time>
      </trkpt>
      <trkpt lat="45.92848" lon="6.50379">
        <ele>1647.8</ele>
        <time>2014-02-16T10:09:27Z</time>
      </trkpt>
      <trkpt lat="45.92849" lon="6.50382">
        <ele>1646.4</ele>
        <time>2014-02-16T10:09:42Z</time>
      </trkpt>
      <trkpt lat="45.92849" lon="6.50381">
        <ele>1645.4</ele>
        <time>2014-02-16T10:10:25Z</time>
      </trkpt>
      <trkpt lat="45.92846" lon="6.50382">
        <ele>1645</ele>
        <time>2014-02-16T10:16:07Z</time>
      </trkpt>
      <trkpt lat="45.92845" lon="6.50382">
        <ele>1645</ele>
        <time>2014-02-16T10:16:33Z</time>
      </trkpt>
      <trkpt lat="45.92846" lon="6.50388">
        <ele>1645.9</ele>
        <time>2014-02-16T10:16:59Z</time>
      </trkpt>
      <trkpt lat="45.92846" lon="6.50388">
        <ele>1646.9</ele>
        <time>2014-02-16T10:17:23Z</time>
      </trkpt>
      <trkpt lat="45.92845" lon="6.50397">
        <ele>1649.3</ele>
        <time>2014-02-16T10:17:47Z</time>
      </trkpt>
      <trkpt lat="45.92837" lon="6.50399">
        <ele>1650.7</ele>
        <time>2014-02-16T10:18:01Z</time>
      </trkpt>
      <trkpt lat="45.92828" lon="6.50401">
        <ele>1651.7</ele>
        <time>2014-02-16T10:18:18Z</time>
      </trkpt>
      <trkpt lat="45.92829" lon="6.50405">
        <ele>1651.2</ele>
        <time>2014-02-16T10:18:28Z</time>
      </trkpt>
      <trkpt lat="45.92838" lon="6.50417">
        <ele>1650.7</ele>
        <time>2014-02-16T10:18:46Z</time>
      </trkpt>
      <trkpt lat="45.92842" lon="6.50429">
        <ele>1652.6</ele>
        <time>2014-02-16T10:18:58Z</time>
      </trkpt>
      <trkpt lat="45.92847" lon="6.50436">
        <ele>1652.6</ele>
        <time>2014-02-16T10:19:10Z</time>
      </trkpt>
      <trkpt lat="45.92851" lon="6.50442">
        <ele>1656.5</ele>
        <time>2014-02-16T10:19:26Z</time>
      </trkpt>
      <trkpt lat="45.92854" lon="6.50446">
        <ele>1657.9</ele>
        <time>2014-02-16T10:19:39Z</time>
      </trkpt>
      <trkpt lat="45.92865" lon="6.50452">
        <ele>1660.8</ele>
        <time>2014-02-16T10:20:08Z</time>
      </trkpt>
      <trkpt lat="45.92879" lon="6.50458">
        <ele>1665.6</ele>
        <time>2014-02-16T10:20:29Z</time>
      </trkpt>
      <trkpt lat="45.92891" lon="6.50458">
        <ele>1667.1</ele>
        <time>2014-02-16T10:20:44Z</time>
      </trkpt>
      <trkpt lat="45.92898" lon="6.50467">
        <ele>1669</ele>
        <time>2014-02-16T10:21:05Z</time>
      </trkpt>
      <trkpt lat="45.92902" lon="6.5048">
        <ele>1671.9</ele>
        <time>2014-02-16T10:21:26Z</time>
      </trkpt>
      <trkpt lat="45.9291" lon="6.50495">
        <ele>1673.8</ele>
        <time>2014-02-16T10:21:46Z</time>
      </trkpt>
      <trkpt lat="45.92914" lon="6.50503">
        <ele>1675.7</ele>
        <time>2014-02-16T10:22:00Z</time>
      </trkpt>
      <trkpt lat="45.92908" lon="6.50506">
        <ele>1676.7</ele>
        <time>2014-02-16T10:22:12Z</time>
      </trkpt>
      <trkpt lat="45.92909" lon="6.50512">
        <ele>1677.2</ele>
        <time>2014-02-16T10:22:21Z</time>
      </trkpt>
      <trkpt lat="45.92916" lon="6.50525">
        <ele>1678.1</ele>
        <time>2014-02-16T10:22:35Z</time>
      </trkpt>
      <trkpt lat="45.92919" lon="6.50528">
        <ele>1677.6</ele>
        <time>2014-02-16T10:22:40Z</time>
      </trkpt>
      <trkpt lat="45.92932" lon="6.50543">
        <ele>1676.2</ele>
        <time>2014-02-16T10:22:56Z</time>
      </trkpt>
      <trkpt lat="45.92937" lon="6.5056">
        <ele>1675.7</ele>
        <time>2014-02-16T10:23:07Z</time>
      </trkpt>
      <trkpt lat="45.92938" lon="6.50567">
        <ele>1675.7</ele>
        <time>2014-02-16T10:23:12Z</time>
      </trkpt>
      <trkpt lat="45.9295" lon="6.50593">
        <ele>1674.3</ele>
        <time>2014-02-16T10:23:28Z</time>
      </trkpt>
      <trkpt lat="45.92958" lon="6.50608">
        <ele>1675.7</ele>
        <time>2014-02-16T10:23:45Z</time>
      </trkpt>
      <trkpt lat="45.92969" lon="6.50625">
        <ele>1676.2</ele>
        <time>2014-02-16T10:24:05Z</time>
      </trkpt>
      <trkpt lat="45.9298" lon="6.50641">
        <ele>1677.2</ele>
        <time>2014-02-16T10:24:24Z</time>
      </trkpt>
      <trkpt lat="45.92993" lon="6.50658">
        <ele>1678.6</ele>
        <time>2014-02-16T10:24:47Z</time>
      </trkpt>
      <trkpt lat="45.93006" lon="6.50671">
        <ele>1681</ele>
        <time>2014-02-16T10:25:08Z</time>
      </trkpt>
      <trkpt lat="45.93015" lon="6.50685">
        <ele>1682.4</ele>
        <time>2014-02-16T10:25:28Z</time>
      </trkpt>
      <trkpt lat="45.93022" lon="6.50696">
        <ele>1686.3</ele>
        <time>2014-02-16T10:25:45Z</time>
      </trkpt>
      <trkpt lat="45.93028" lon="6.50707">
        <ele>1689.2</ele>
        <time>2014-02-16T10:26:03Z</time>
      </trkpt>
      <trkpt lat="45.93033" lon="6.5072">
        <ele>1691.6</ele>
        <time>2014-02-16T10:26:20Z</time>
      </trkpt>
      <trkpt lat="45.93037" lon="6.50732">
        <ele>1693.5</ele>
        <time>2014-02-16T10:26:34Z</time>
      </trkpt>
      <trkpt lat="45.93036" lon="6.50748">
        <ele>1694</ele>
        <time>2014-02-16T10:26:55Z</time>
      </trkpt>
      <trkpt lat="45.93042" lon="6.50765">
        <ele>1699.3</ele>
        <time>2014-02-16T10:27:17Z</time>
      </trkpt>
      <trkpt lat="45.93045" lon="6.50776">
        <ele>1701.2</ele>
        <time>2014-02-16T10:27:32Z</time>
      </trkpt>
      <trkpt lat="45.93046" lon="6.50776">
        <ele>1701.2</ele>
        <time>2014-02-16T10:27:33Z</time>
      </trkpt>
      <trkpt lat="45.93039" lon="6.50777">
        <ele>1702.2</ele>
        <time>2014-02-16T10:27:47Z</time>
      </trkpt>
      <trkpt lat="45.93034" lon="6.50777">
        <ele>1703.6</ele>
        <time>2014-02-16T10:28:02Z</time>
      </trkpt>
      <trkpt lat="45.93033" lon="6.50781">
        <ele>1703.6</ele>
        <time>2014-02-16T10:28:23Z</time>
      </trkpt>
      <trkpt lat="45.9304" lon="6.50797">
        <ele>1707.9</ele>
        <time>2014-02-16T10:28:49Z</time>
      </trkpt>
      <trkpt lat="45.93046" lon="6.50814">
        <ele>1714.2</ele>
        <time>2014-02-16T10:29:18Z</time>
      </trkpt>
      <trkpt lat="45.93041" lon="6.50812">
        <ele>1715.6</ele>
        <time>2014-02-16T10:29:30Z</time>
      </trkpt>
      <trkpt lat="45.93031" lon="6.5081">
        <ele>1718.5</ele>
        <time>2014-02-16T10:29:45Z</time>
      </trkpt>
      <trkpt lat="45.93025" lon="6.50809">
        <ele>1719.5</ele>
        <time>2014-02-16T10:30:01Z</time>
      </trkpt>
      <trkpt lat="45.93025" lon="6.50811">
        <ele>1719.9</ele>
        <time>2014-02-16T10:30:24Z</time>
      </trkpt>
      <trkpt lat="45.93028" lon="6.5082">
        <ele>1721.4</ele>
        <time>2014-02-16T10:30:37Z</time>
      </trkpt>
      <trkpt lat="45.93032" lon="6.50832">
        <ele>1722.8</ele>
        <time>2014-02-16T10:30:52Z</time>
      </trkpt>
      <trkpt lat="45.93036" lon="6.50844">
        <ele>1724.3</ele>
        <time>2014-02-16T10:31:08Z</time>
      </trkpt>
      <trkpt lat="45.93041" lon="6.50854">
        <ele>1728.6</ele>
        <time>2014-02-16T10:31:23Z</time>
      </trkpt>
      <trkpt lat="45.93044" lon="6.50862">
        <ele>1731.5</ele>
        <time>2014-02-16T10:31:37Z</time>
      </trkpt>
      <trkpt lat="45.93047" lon="6.50871">
        <ele>1732.4</ele>
        <time>2014-02-16T10:31:50Z</time>
      </trkpt>
      <trkpt lat="45.9305" lon="6.50881">
        <ele>1733.9</ele>
        <time>2014-02-16T10:32:03Z</time>
      </trkpt>
      <trkpt lat="45.9305" lon="6.50885">
        <ele>1735.8</ele>
        <time>2014-02-16T10:32:15Z</time>
      </trkpt>
      <trkpt lat="45.93041" lon="6.50882">
        <ele>1736.8</ele>
        <time>2014-02-16T10:32:28Z</time>
      </trkpt>
      <trkpt lat="45.93035" lon="6.50879">
        <ele>1738.7</ele>
        <time>2014-02-16T10:32:44Z</time>
      </trkpt>
      <trkpt lat="45.93023" lon="6.50876">
        <ele>1742.5</ele>
        <time>2014-02-16T10:33:04Z</time>
      </trkpt>
      <trkpt lat="45.93013" lon="6.50874">
        <ele>1744.9</ele>
        <time>2014-02-16T10:33:26Z</time>
      </trkpt>
      <trkpt lat="45.93016" lon="6.50879">
        <ele>1745.9</ele>
        <time>2014-02-16T10:33:40Z</time>
      </trkpt>
      <trkpt lat="45.93022" lon="6.50887">
        <ele>1750.2</ele>
        <time>2014-02-16T10:33:57Z</time>
      </trkpt>
      <trkpt lat="45.93027" lon="6.50906">
        <ele>1756.5</ele>
        <time>2014-02-16T10:34:20Z</time>
      </trkpt>
      <trkpt lat="45.93031" lon="6.50919">
        <ele>1761.3</ele>
        <time>2014-02-16T10:34:39Z</time>
      </trkpt>
      <trkpt lat="45.93037" lon="6.5094">
        <ele>1767.5</ele>
        <time>2014-02-16T10:35:06Z</time>
      </trkpt>
      <trkpt lat="45.93041" lon="6.50956">
        <ele>1770.4</ele>
        <time>2014-02-16T10:35:27Z</time>
      </trkpt>
      <trkpt lat="45.93045" lon="6.50976">
        <ele>1773.8</ele>
        <time>2014-02-16T10:35:49Z</time>
      </trkpt>
      <trkpt lat="45.93046" lon="6.51003">
        <ele>1777.6</ele>
        <time>2014-02-16T10:36:20Z</time>
      </trkpt>
      <trkpt lat="45.93042" lon="6.51024">
        <ele>1781.5</ele>
        <time>2014-02-16T10:36:45Z</time>
      </trkpt>
      <trkpt lat="45.93036" lon="6.51038">
        <ele>1783.9</ele>
        <time>2014-02-16T10:37:05Z</time>
      </trkpt>
      <trkpt lat="45.93034" lon="6.51069">
        <ele>1790.6</ele>
        <time>2014-02-16T10:37:38Z</time>
      </trkpt>
      <trkpt lat="45.93035" lon="6.51097">
        <ele>1794.4</ele>
        <time>2014-02-16T10:38:11Z</time>
      </trkpt>
      <trkpt lat="45.93019" lon="6.51105">
        <ele>1795.9</ele>
        <time>2014-02-16T10:38:32Z</time>
      </trkpt>
      <trkpt lat="45.93021" lon="6.51121">
        <ele>1799.2</ele>
        <time>2014-02-16T10:38:54Z</time>
      </trkpt>
      <trkpt lat="45.93028" lon="6.51131">
        <ele>1801.2</ele>
        <time>2014-02-16T10:39:10Z</time>
      </trkpt>
      <trkpt lat="45.93037" lon="6.51144">
        <ele>1804.1</ele>
        <time>2014-02-16T10:39:33Z</time>
      </trkpt>
      <trkpt lat="45.93044" lon="6.51157">
        <ele>1806.5</ele>
        <time>2014-02-16T10:39:58Z</time>
      </trkpt>
      <trkpt lat="45.93032" lon="6.51167">
        <ele>1808.4</ele>
        <time>2014-02-16T10:40:23Z</time>
      </trkpt>
      <trkpt lat="45.93022" lon="6.51172">
        <ele>1812.7</ele>
        <time>2014-02-16T10:40:42Z</time>
      </trkpt>
      <trkpt lat="45.93009" lon="6.51184">
        <ele>1815.6</ele>
        <time>2014-02-16T10:41:06Z</time>
      </trkpt>
      <trkpt lat="45.93006" lon="6.51189">
        <ele>1817</ele>
        <time>2014-02-16T10:41:20Z</time>
      </trkpt>
      <trkpt lat="45.92992" lon="6.51206">
        <ele>1822.8</ele>
        <time>2014-02-16T10:41:55Z</time>
      </trkpt>
      <trkpt lat="45.92983" lon="6.51214">
        <ele>1826.2</ele>
        <time>2014-02-16T10:42:14Z</time>
      </trkpt>
      <trkpt lat="45.92973" lon="6.51231">
        <ele>1831.4</ele>
        <time>2014-02-16T10:42:46Z</time>
      </trkpt>
      <trkpt lat="45.92963" lon="6.51243">
        <ele>1835.3</ele>
        <time>2014-02-16T10:43:09Z</time>
      </trkpt>
      <trkpt lat="45.9296" lon="6.51256">
        <ele>1836.7</ele>
        <time>2014-02-16T10:43:28Z</time>
      </trkpt>
      <trkpt lat="45.92945" lon="6.5126">
        <ele>1840.1</ele>
        <time>2014-02-16T10:43:49Z</time>
      </trkpt>
      <trkpt lat="45.92926" lon="6.51263">
        <ele>1845.4</ele>
        <time>2014-02-16T10:44:24Z</time>
      </trkpt>
      <trkpt lat="45.92914" lon="6.51276">
        <ele>1848.8</ele>
        <time>2014-02-16T10:44:49Z</time>
      </trkpt>
      <trkpt lat="45.92912" lon="6.51292">
        <ele>1852.6</ele>
        <time>2014-02-16T10:45:09Z</time>
      </trkpt>
      <trkpt lat="45.92916" lon="6.51313">
        <ele>1856.4</ele>
        <time>2014-02-16T10:45:32Z</time>
      </trkpt>
      <trkpt lat="45.92905" lon="6.5131">
        <ele>1857.4</ele>
        <time>2014-02-16T10:45:49Z</time>
      </trkpt>
      <trkpt lat="45.92894" lon="6.51312">
        <ele>1859.8</ele>
        <time>2014-02-16T10:46:07Z</time>
      </trkpt>
      <trkpt lat="45.92885" lon="6.5132">
        <ele>1863.2</ele>
        <time>2014-02-16T10:46:25Z</time>
      </trkpt>
      <trkpt lat="45.92876" lon="6.51334">
        <ele>1868.9</ele>
        <time>2014-02-16T10:46:54Z</time>
      </trkpt>
      <trkpt lat="45.92883" lon="6.51351">
        <ele>1873.3</ele>
        <time>2014-02-16T10:47:18Z</time>
      </trkpt>
      <trkpt lat="45.92889" lon="6.51365">
        <ele>1876.6</ele>
        <time>2014-02-16T10:47:36Z</time>
      </trkpt>
      <trkpt lat="45.92875" lon="6.51365">
        <ele>1878.6</ele>
        <time>2014-02-16T10:47:56Z</time>
      </trkpt>
      <trkpt lat="45.92868" lon="6.51364">
        <ele>1880</ele>
        <time>2014-02-16T10:48:08Z</time>
      </trkpt>
      <trkpt lat="45.92866" lon="6.51374">
        <ele>1880.5</ele>
        <time>2014-02-16T10:48:21Z</time>
      </trkpt>
      <trkpt lat="45.92868" lon="6.5138">
        <ele>1881</ele>
        <time>2014-02-16T10:48:28Z</time>
      </trkpt>
      <trkpt lat="45.92876" lon="6.51396">
        <ele>1884.8</ele>
        <time>2014-02-16T10:48:46Z</time>
      </trkpt>
      <trkpt lat="45.92876" lon="6.51404">
        <ele>1887.2</ele>
        <time>2014-02-16T10:49:03Z</time>
      </trkpt>
      <trkpt lat="45.9286" lon="6.514">
        <ele>1891.1</ele>
        <time>2014-02-16T10:49:27Z</time>
      </trkpt>
      <trkpt lat="45.92854" lon="6.51397">
        <ele>1892.5</ele>
        <time>2014-02-16T10:49:36Z</time>
      </trkpt>
      <trkpt lat="45.92841" lon="6.51384">
        <ele>1893</ele>
        <time>2014-02-16T10:49:58Z</time>
      </trkpt>
      <trkpt lat="45.92834" lon="6.5137">
        <ele>1894.9</ele>
        <time>2014-02-16T10:50:18Z</time>
      </trkpt>
      <trkpt lat="45.92816" lon="6.5136">
        <ele>1898.7</ele>
        <time>2014-02-16T10:50:47Z</time>
      </trkpt>
      <trkpt lat="45.92816" lon="6.51377">
        <ele>1901.1</ele>
        <time>2014-02-16T10:51:06Z</time>
      </trkpt>
      <trkpt lat="45.92816" lon="6.51408">
        <ele>1905.5</ele>
        <time>2014-02-16T10:51:39Z</time>
      </trkpt>
      <trkpt lat="45.92812" lon="6.51415">
        <ele>1906.9</ele>
        <time>2014-02-16T10:51:55Z</time>
      </trkpt>
      <trkpt lat="45.92808" lon="6.51411">
        <ele>1908.4</ele>
        <time>2014-02-16T10:52:01Z</time>
      </trkpt>
      <trkpt lat="45.92799" lon="6.51399">
        <ele>1911.7</ele>
        <time>2014-02-16T10:52:20Z</time>
      </trkpt>
      <trkpt lat="45.92793" lon="6.51387">
        <ele>1915.6</ele>
        <time>2014-02-16T10:52:38Z</time>
      </trkpt>
      <trkpt lat="45.92788" lon="6.51391">
        <ele>1918</ele>
        <time>2014-02-16T10:52:51Z</time>
      </trkpt>
      <trkpt lat="45.92785" lon="6.51416">
        <ele>1921.3</ele>
        <time>2014-02-16T10:53:16Z</time>
      </trkpt>
      <trkpt lat="45.92788" lon="6.5143">
        <ele>1922.8</ele>
        <time>2014-02-16T10:53:31Z</time>
      </trkpt>
      <trkpt lat="45.92787" lon="6.51436">
        <ele>1924.2</ele>
        <time>2014-02-16T10:53:45Z</time>
      </trkpt>
      <trkpt lat="45.92775" lon="6.51431">
        <ele>1929</ele>
        <time>2014-02-16T10:54:00Z</time>
      </trkpt>
      <trkpt lat="45.92768" lon="6.51427">
        <ele>1932.4</ele>
        <time>2014-02-16T10:54:12Z</time>
      </trkpt>
      <trkpt lat="45.92762" lon="6.51423">
        <ele>1935.8</ele>
        <time>2014-02-16T10:54:27Z</time>
      </trkpt>
      <trkpt lat="45.92756" lon="6.51426">
        <ele>1937.2</ele>
        <time>2014-02-16T10:54:42Z</time>
      </trkpt>
      <trkpt lat="45.92763" lon="6.51441">
        <ele>1938.2</ele>
        <time>2014-02-16T10:55:03Z</time>
      </trkpt>
      <trkpt lat="45.92768" lon="6.51454">
        <ele>1940.6</ele>
        <time>2014-02-16T10:55:21Z</time>
      </trkpt>
      <trkpt lat="45.92768" lon="6.5146">
        <ele>1940.1</ele>
        <time>2014-02-16T10:55:37Z</time>
      </trkpt>
      <trkpt lat="45.9276" lon="6.51457">
        <ele>1940.6</ele>
        <time>2014-02-16T10:55:47Z</time>
      </trkpt>
      <trkpt lat="45.9275" lon="6.51452">
        <ele>1943</ele>
        <time>2014-02-16T10:56:00Z</time>
      </trkpt>
      <trkpt lat="45.92754" lon="6.51457">
        <ele>1946.3</ele>
        <time>2014-02-16T10:56:12Z</time>
      </trkpt>
      <trkpt lat="45.92757" lon="6.51464">
        <ele>1948.7</ele>
        <time>2014-02-16T10:56:25Z</time>
      </trkpt>
      <trkpt lat="45.92758" lon="6.51467">
        <ele>1946.8</ele>
        <time>2014-02-16T10:56:32Z</time>
      </trkpt>
      <trkpt lat="45.92749" lon="6.51465">
        <ele>1944.4</ele>
        <time>2014-02-16T10:56:44Z</time>
      </trkpt>
      <trkpt lat="45.92739" lon="6.51459">
        <ele>1948.2</ele>
        <time>2014-02-16T10:56:56Z</time>
      </trkpt>
      <trkpt lat="45.92734" lon="6.51455">
        <ele>1951.1</ele>
        <time>2014-02-16T10:57:08Z</time>
      </trkpt>
      <trkpt lat="45.92724" lon="6.51454">
        <ele>1955.9</ele>
        <time>2014-02-16T10:57:27Z</time>
      </trkpt>
      <trkpt lat="45.92723" lon="6.51466">
        <ele>1960.3</ele>
        <time>2014-02-16T10:57:45Z</time>
      </trkpt>
      <trkpt lat="45.92732" lon="6.51487">
        <ele>1961.7</ele>
        <time>2014-02-16T10:58:08Z</time>
      </trkpt>
      <trkpt lat="45.9273" lon="6.51491">
        <ele>1961.7</ele>
        <time>2014-02-16T10:58:19Z</time>
      </trkpt>
      <trkpt lat="45.92724" lon="6.51493">
        <ele>1961.2</ele>
        <time>2014-02-16T10:58:32Z</time>
      </trkpt>
      <trkpt lat="45.92717" lon="6.51488">
        <ele>1962.2</ele>
        <time>2014-02-16T10:58:45Z</time>
      </trkpt>
      <trkpt lat="45.92704" lon="6.51483">
        <ele>1966</ele>
        <time>2014-02-16T10:59:03Z</time>
      </trkpt>
      <trkpt lat="45.927" lon="6.51484">
        <ele>1968.9</ele>
        <time>2014-02-16T10:59:19Z</time>
      </trkpt>
      <trkpt lat="45.92706" lon="6.51497">
        <ele>1974.7</ele>
        <time>2014-02-16T10:59:33Z</time>
      </trkpt>
      <trkpt lat="45.92706" lon="6.51504">
        <ele>1979</ele>
        <time>2014-02-16T10:59:49Z</time>
      </trkpt>
      <trkpt lat="45.92703" lon="6.51504">
        <ele>1980.5</ele>
        <time>2014-02-16T10:59:52Z</time>
      </trkpt>
      <trkpt lat="45.92689" lon="6.51499">
        <ele>1980</ele>
        <time>2014-02-16T11:00:07Z</time>
      </trkpt>
      <trkpt lat="45.92687" lon="6.515">
        <ele>1980.5</ele>
        <time>2014-02-16T11:00:17Z</time>
      </trkpt>
      <trkpt lat="45.92689" lon="6.51503">
        <ele>1981.4</ele>
        <time>2014-02-16T11:00:21Z</time>
      </trkpt>
      <trkpt lat="45.92693" lon="6.51518">
        <ele>1984.8</ele>
        <time>2014-02-16T11:00:35Z</time>
      </trkpt>
      <trkpt lat="45.92696" lon="6.51525">
        <ele>1988.1</ele>
        <time>2014-02-16T11:00:46Z</time>
      </trkpt>
      <trkpt lat="45.92703" lon="6.51533">
        <ele>1990.5</ele>
        <time>2014-02-16T11:01:00Z</time>
      </trkpt>
      <trkpt lat="45.92709" lon="6.51538">
        <ele>1993</ele>
        <time>2014-02-16T11:01:15Z</time>
      </trkpt>
      <trkpt lat="45.92711" lon="6.51545">
        <ele>1993.4</ele>
        <time>2014-02-16T11:01:22Z</time>
      </trkpt>
      <trkpt lat="45.92717" lon="6.51564">
        <ele>1994.4</ele>
        <time>2014-02-16T11:01:41Z</time>
      </trkpt>
      <trkpt lat="45.92711" lon="6.51575">
        <ele>1995.8</ele>
        <time>2014-02-16T11:02:02Z</time>
      </trkpt>
      <trkpt lat="45.92699" lon="6.5157">
        <ele>1999.7</ele>
        <time>2014-02-16T11:02:18Z</time>
      </trkpt>
      <trkpt lat="45.92697" lon="6.51576">
        <ele>2000.2</ele>
        <time>2014-02-16T11:02:31Z</time>
      </trkpt>
      <trkpt lat="45.92695" lon="6.51599">
        <ele>2003</ele>
        <time>2014-02-16T11:02:52Z</time>
      </trkpt>
      <trkpt lat="45.92694" lon="6.51601">
        <ele>2003.5</ele>
        <time>2014-02-16T11:02:54Z</time>
      </trkpt>
      <trkpt lat="45.9269" lon="6.51617">
        <ele>2003.5</ele>
        <time>2014-02-16T11:03:11Z</time>
      </trkpt>
      <trkpt lat="45.9269" lon="6.51618">
        <ele>2003.5</ele>
        <time>2014-02-16T11:03:12Z</time>
      </trkpt>
      <trkpt lat="45.92688" lon="6.51623">
        <ele>2003.5</ele>
        <time>2014-02-16T11:03:21Z</time>
      </trkpt>
      <trkpt lat="45.92673" lon="6.51613">
        <ele>2006.9</ele>
        <time>2014-02-16T11:03:37Z</time>
      </trkpt>
      <trkpt lat="45.9266" lon="6.51601">
        <ele>2011.7</ele>
        <time>2014-02-16T11:03:52Z</time>
      </trkpt>
      <trkpt lat="45.92648" lon="6.51592">
        <ele>2015.1</ele>
        <time>2014-02-16T11:04:12Z</time>
      </trkpt>
      <trkpt lat="45.92636" lon="6.5158">
        <ele>2017.9</ele>
        <time>2014-02-16T11:04:30Z</time>
      </trkpt>
      <trkpt lat="45.92637" lon="6.51583">
        <ele>2017.9</ele>
        <time>2014-02-16T11:04:45Z</time>
      </trkpt>
      <trkpt lat="45.92639" lon="6.51593">
        <ele>2018.4</ele>
        <time>2014-02-16T11:04:58Z</time>
      </trkpt>
      <trkpt lat="45.92642" lon="6.51601">
        <ele>2018.4</ele>
        <time>2014-02-16T11:05:03Z</time>
      </trkpt>
      <trkpt lat="45.92647" lon="6.51617">
        <ele>2022.3</ele>
        <time>2014-02-16T11:05:20Z</time>
      </trkpt>
      <trkpt lat="45.9265" lon="6.51629">
        <ele>2023.2</ele>
        <time>2014-02-16T11:05:35Z</time>
      </trkpt>
      <trkpt lat="45.92647" lon="6.51624">
        <ele>2025.2</ele>
        <time>2014-02-16T11:05:50Z</time>
      </trkpt>
      <trkpt lat="45.92637" lon="6.51618">
        <ele>2024.2</ele>
        <time>2014-02-16T11:06:20Z</time>
      </trkpt>
      <trkpt lat="45.92631" lon="6.51609">
        <ele>2024.7</ele>
        <time>2014-02-16T11:06:35Z</time>
      </trkpt>
      <trkpt lat="45.92627" lon="6.51601">
        <ele>2027.1</ele>
        <time>2014-02-16T11:06:46Z</time>
      </trkpt>
      <trkpt lat="45.92625" lon="6.51595">
        <ele>2027.6</ele>
        <time>2014-02-16T11:07:07Z</time>
      </trkpt>
      <trkpt lat="45.92625" lon="6.51595">
        <ele>2028</ele>
        <time>2014-02-16T11:07:45Z</time>
      </trkpt>
      <trkpt lat="45.92615" lon="6.51588">
        <ele>2032.4</ele>
        <time>2014-02-16T11:08:01Z</time>
      </trkpt>
      <trkpt lat="45.9261" lon="6.51579">
        <ele>2040.1</ele>
        <time>2014-02-16T11:08:19Z</time>
      </trkpt>
      <trkpt lat="45.92601" lon="6.51567">
        <ele>2045.3</ele>
        <time>2014-02-16T11:08:39Z</time>
      </trkpt>
      <trkpt lat="45.92595" lon="6.51562">
        <ele>2043.9</ele>
        <time>2014-02-16T11:08:51Z</time>
      </trkpt>
      <trkpt lat="45.92593" lon="6.51561">
        <ele>2044.9</ele>
        <time>2014-02-16T11:09:06Z</time>
      </trkpt>
      <trkpt lat="45.9259" lon="6.51563">
        <ele>2047.3</ele>
        <time>2014-02-16T11:09:20Z</time>
      </trkpt>
      <trkpt lat="45.9259" lon="6.51573">
        <ele>2046.8</ele>
        <time>2014-02-16T11:09:42Z</time>
      </trkpt>
      <trkpt lat="45.92592" lon="6.51581">
        <ele>2046.3</ele>
        <time>2014-02-16T11:10:03Z</time>
      </trkpt>
      <trkpt lat="45.92588" lon="6.51576">
        <ele>2047.7</ele>
        <time>2014-02-16T11:10:18Z</time>
      </trkpt>
      <trkpt lat="45.92579" lon="6.51568">
        <ele>2048.7</ele>
        <time>2014-02-16T11:10:36Z</time>
      </trkpt>
      <trkpt lat="45.92578" lon="6.51578">
        <ele>2052.6</ele>
        <time>2014-02-16T11:10:47Z</time>
      </trkpt>
      <trkpt lat="45.92578" lon="6.51587">
        <ele>2055.4</ele>
        <time>2014-02-16T11:11:01Z</time>
      </trkpt>
      <trkpt lat="45.92575" lon="6.51584">
        <ele>2056.9</ele>
        <time>2014-02-16T11:11:15Z</time>
      </trkpt>
      <trkpt lat="45.92574" lon="6.51582">
        <ele>2057.8</ele>
        <time>2014-02-16T11:11:53Z</time>
      </trkpt>
      <trkpt lat="45.92563" lon="6.51574">
        <ele>2061.2</ele>
        <time>2014-02-16T11:12:11Z</time>
      </trkpt>
      <trkpt lat="45.9256" lon="6.51577">
        <ele>2061.2</ele>
        <time>2014-02-16T11:12:21Z</time>
      </trkpt>
      <trkpt lat="45.92565" lon="6.51593">
        <ele>2063.6</ele>
        <time>2014-02-16T11:12:37Z</time>
      </trkpt>
      <trkpt lat="45.92564" lon="6.51595">
        <ele>2065.5</ele>
        <time>2014-02-16T11:12:54Z</time>
      </trkpt>
      <trkpt lat="45.92555" lon="6.51586">
        <ele>2066</ele>
        <time>2014-02-16T11:13:09Z</time>
      </trkpt>
      <trkpt lat="45.92548" lon="6.51577">
        <ele>2068.9</ele>
        <time>2014-02-16T11:13:25Z</time>
      </trkpt>
      <trkpt lat="45.92548" lon="6.51576">
        <ele>2068.9</ele>
        <time>2014-02-16T11:13:38Z</time>
      </trkpt>
      <trkpt lat="45.92547" lon="6.51591">
        <ele>2068.9</ele>
        <time>2014-02-16T11:13:53Z</time>
      </trkpt>
      <trkpt lat="45.92545" lon="6.51592">
        <ele>2069.4</ele>
        <time>2014-02-16T11:14:05Z</time>
      </trkpt>
      <trkpt lat="45.92543" lon="6.5159">
        <ele>2069.4</ele>
        <time>2014-02-16T11:14:26Z</time>
      </trkpt>
      <trkpt lat="45.92539" lon="6.51577">
        <ele>2070.8</ele>
        <time>2014-02-16T11:15:00Z</time>
      </trkpt>
      <trkpt lat="45.92537" lon="6.51577">
        <ele>2070.3</ele>
        <time>2014-02-16T11:15:14Z</time>
      </trkpt>
      <trkpt lat="45.92534" lon="6.51586">
        <ele>2070.8</ele>
        <time>2014-02-16T11:15:27Z</time>
      </trkpt>
      <trkpt lat="45.92532" lon="6.51581">
        <ele>2070.3</ele>
        <time>2014-02-16T11:15:36Z</time>
      </trkpt>
      <trkpt lat="45.92531" lon="6.51576">
        <ele>2071.3</ele>
        <time>2014-02-16T11:15:46Z</time>
      </trkpt>
      <trkpt lat="45.92528" lon="6.5157">
        <ele>2073.2</ele>
        <time>2014-02-16T11:15:59Z</time>
      </trkpt>
      <trkpt lat="45.92524" lon="6.51579">
        <ele>2073.7</ele>
        <time>2014-02-16T11:16:13Z</time>
      </trkpt>
      <trkpt lat="45.92523" lon="6.51588">
        <ele>2075.1</ele>
        <time>2014-02-16T11:16:25Z</time>
      </trkpt>
      <trkpt lat="45.92526" lon="6.51588">
        <ele>2074.2</ele>
        <time>2014-02-16T11:16:33Z</time>
      </trkpt>
      <trkpt lat="45.92523" lon="6.51581">
        <ele>2076.1</ele>
        <time>2014-02-16T11:16:47Z</time>
      </trkpt>
      <trkpt lat="45.9252" lon="6.51575">
        <ele>2079.5</ele>
        <time>2014-02-16T11:17:00Z</time>
      </trkpt>
      <trkpt lat="45.92516" lon="6.51581">
        <ele>2080.4</ele>
        <time>2014-02-16T11:17:12Z</time>
      </trkpt>
      <trkpt lat="45.92517" lon="6.51584">
        <ele>2080.9</ele>
        <time>2014-02-16T11:17:14Z</time>
      </trkpt>
      <trkpt lat="45.92516" lon="6.5159">
        <ele>2081.9</ele>
        <time>2014-02-16T11:17:27Z</time>
      </trkpt>
      <trkpt lat="45.92515" lon="6.51579">
        <ele>2086.7</ele>
        <time>2014-02-16T11:17:42Z</time>
      </trkpt>
      <trkpt lat="45.92511" lon="6.51585">
        <ele>2092.4</ele>
        <time>2014-02-16T11:17:55Z</time>
      </trkpt>
      <trkpt lat="45.9251" lon="6.51585">
        <ele>2095.3</ele>
        <time>2014-02-16T11:18:09Z</time>
      </trkpt>
      <trkpt lat="45.92508" lon="6.51575">
        <ele>2098.2</ele>
        <time>2014-02-16T11:18:23Z</time>
      </trkpt>
      <trkpt lat="45.92507" lon="6.51572">
        <ele>2099.2</ele>
        <time>2014-02-16T11:18:37Z</time>
      </trkpt>
      <trkpt lat="45.92501" lon="6.51577">
        <ele>2103.5</ele>
        <time>2014-02-16T11:18:57Z</time>
      </trkpt>
      <trkpt lat="45.92498" lon="6.51596">
        <ele>2110.2</ele>
        <time>2014-02-16T11:19:20Z</time>
      </trkpt>
      <trkpt lat="45.92495" lon="6.51585">
        <ele>2111.7</ele>
        <time>2014-02-16T11:19:38Z</time>
      </trkpt>
      <trkpt lat="45.92492" lon="6.51587">
        <ele>2113.6</ele>
        <time>2014-02-16T11:19:50Z</time>
      </trkpt>
      <trkpt lat="45.92489" lon="6.51599">
        <ele>2115.5</ele>
        <time>2014-02-16T11:20:04Z</time>
      </trkpt>
      <trkpt lat="45.92488" lon="6.51618">
        <ele>2117.9</ele>
        <time>2014-02-16T11:20:25Z</time>
      </trkpt>
      <trkpt lat="45.92485" lon="6.51631">
        <ele>2119.4</ele>
        <time>2014-02-16T11:20:47Z</time>
      </trkpt>
      <trkpt lat="45.92485" lon="6.51635">
        <ele>2118.4</ele>
        <time>2014-02-16T11:21:20Z</time>
      </trkpt>
      <trkpt lat="45.92485" lon="6.51634">
        <ele>2117.9</ele>
        <time>2014-02-16T11:21:50Z</time>
      </trkpt>
      <trkpt lat="45.92484" lon="6.51642">
        <ele>2119.4</ele>
        <time>2014-02-16T11:22:07Z</time>
      </trkpt>
      <trkpt lat="45.92477" lon="6.51652">
        <ele>2119.4</ele>
        <time>2014-02-16T11:22:25Z</time>
      </trkpt>
      <trkpt lat="45.92467" lon="6.51643">
        <ele>2120.3</ele>
        <time>2014-02-16T11:22:42Z</time>
      </trkpt>
      <trkpt lat="45.9245" lon="6.51652">
        <ele>2119.8</ele>
        <time>2014-02-16T11:23:05Z</time>
      </trkpt>
      <trkpt lat="45.92441" lon="6.51675">
        <ele>2121.3</ele>
        <time>2014-02-16T11:23:26Z</time>
      </trkpt>
      <trkpt lat="45.92443" lon="6.51699">
        <ele>2122.7</ele>
        <time>2014-02-16T11:23:52Z</time>
      </trkpt>
      <trkpt lat="45.92444" lon="6.51705">
        <ele>2123.7</ele>
        <time>2014-02-16T11:24:12Z</time>
      </trkpt>
      <trkpt lat="45.92446" lon="6.51721">
        <ele>2124.7</ele>
        <time>2014-02-16T11:24:34Z</time>
      </trkpt>
      <trkpt lat="45.92446" lon="6.51721">
        <ele>2123.7</ele>
        <time>2014-02-16T11:25:07Z</time>
      </trkpt>
      <trkpt lat="45.92445" lon="6.51721">
        <ele>2124.2</ele>
        <time>2014-02-16T11:25:30Z</time>
      </trkpt>
      <trkpt lat="45.92445" lon="6.51722">
        <ele>2123.7</ele>
        <time>2014-02-16T11:26:03Z</time>
      </trkpt>
      <trkpt lat="45.92446" lon="6.51725">
        <ele>2123.7</ele>
        <time>2014-02-16T11:26:27Z</time>
      </trkpt>
      <trkpt lat="45.92447" lon="6.51755">
        <ele>2126.6</ele>
        <time>2014-02-16T11:26:54Z</time>
      </trkpt>
      <trkpt lat="45.92444" lon="6.51789">
        <ele>2127.1</ele>
        <time>2014-02-16T11:27:24Z</time>
      </trkpt>
      <trkpt lat="45.9244" lon="6.51818">
        <ele>2128.5</ele>
        <time>2014-02-16T11:27:53Z</time>
      </trkpt>
      <trkpt lat="45.92447" lon="6.51838">
        <ele>2130.4</ele>
        <time>2014-02-16T11:28:14Z</time>
      </trkpt>
      <trkpt lat="45.92464" lon="6.5185">
        <ele>2135.7</ele>
        <time>2014-02-16T11:28:44Z</time>
      </trkpt>
      <trkpt lat="45.92477" lon="6.51845">
        <ele>2139.1</ele>
        <time>2014-02-16T11:29:08Z</time>
      </trkpt>
      <trkpt lat="45.92477" lon="6.51858">
        <ele>2144.8</ele>
        <time>2014-02-16T11:29:33Z</time>
      </trkpt>
      <trkpt lat="45.92469" lon="6.51877">
        <ele>2146.3</ele>
        <time>2014-02-16T11:29:59Z</time>
      </trkpt>
      <trkpt lat="45.92467" lon="6.51886">
        <ele>2147.2</ele>
        <time>2014-02-16T11:30:18Z</time>
      </trkpt>
      <trkpt lat="45.92465" lon="6.51894">
        <ele>2147.2</ele>
        <time>2014-02-16T11:30:37Z</time>
      </trkpt>
      <trkpt lat="45.92472" lon="6.51898">
        <ele>2148.7</ele>
        <time>2014-02-16T11:30:51Z</time>
      </trkpt>
      <trkpt lat="45.92479" lon="6.51901">
        <ele>2150.1</ele>
        <time>2014-02-16T11:31:05Z</time>
      </trkpt>
      <trkpt lat="45.92477" lon="6.51908">
        <ele>2150.6</ele>
        <time>2014-02-16T11:31:17Z</time>
      </trkpt>
      <trkpt lat="45.92472" lon="6.51913">
        <ele>2152</ele>
        <time>2014-02-16T11:31:31Z</time>
      </trkpt>
      <trkpt lat="45.92471" lon="6.51914">
        <ele>2153</ele>
        <time>2014-02-16T11:31:52Z</time>
      </trkpt>
      <trkpt lat="45.92475" lon="6.51917">
        <ele>2151.6</ele>
        <time>2014-02-16T11:32:17Z</time>
      </trkpt>
      <trkpt lat="45.92486" lon="6.51922">
        <ele>2154</ele>
        <time>2014-02-16T11:32:42Z</time>
      </trkpt>
      <trkpt lat="45.92481" lon="6.51931">
        <ele>2157.3</ele>
        <time>2014-02-16T11:32:58Z</time>
      </trkpt>
      <trkpt lat="45.92478" lon="6.51932">
        <ele>2155.9</ele>
        <time>2014-02-16T11:33:13Z</time>
      </trkpt>
      <trkpt lat="45.92478" lon="6.51933">
        <ele>2155.9</ele>
        <time>2014-02-16T11:33:18Z</time>
      </trkpt>
      <trkpt lat="45.92484" lon="6.51937">
        <ele>2156.9</ele>
        <time>2014-02-16T11:33:37Z</time>
      </trkpt>
      <trkpt lat="45.92486" lon="6.5194">
        <ele>2157.3</ele>
        <time>2014-02-16T11:33:53Z</time>
      </trkpt>
      <trkpt lat="45.92482" lon="6.51944">
        <ele>2161.2</ele>
        <time>2014-02-16T11:34:07Z</time>
      </trkpt>
      <trkpt lat="45.92478" lon="6.51944">
        <ele>2163.1</ele>
        <time>2014-02-16T11:34:25Z</time>
      </trkpt>
      <trkpt lat="45.92482" lon="6.51952">
        <ele>2163.6</ele>
        <time>2014-02-16T11:34:39Z</time>
      </trkpt>
      <trkpt lat="45.92488" lon="6.51955">
        <ele>2167.4</ele>
        <time>2014-02-16T11:34:56Z</time>
      </trkpt>
      <trkpt lat="45.92486" lon="6.51959">
        <ele>2167.4</ele>
        <time>2014-02-16T11:35:07Z</time>
      </trkpt>
      <trkpt lat="45.92483" lon="6.5196">
        <ele>2167.4</ele>
        <time>2014-02-16T11:35:22Z</time>
      </trkpt>
      <trkpt lat="45.92483" lon="6.5196">
        <ele>2166.5</ele>
        <time>2014-02-16T11:35:35Z</time>
      </trkpt>
      <trkpt lat="45.92482" lon="6.51961">
        <ele>2166</ele>
        <time>2014-02-16T11:35:57Z</time>
      </trkpt>
      <trkpt lat="45.92486" lon="6.51963">
        <ele>2167.9</ele>
        <time>2014-02-16T11:36:19Z</time>
      </trkpt>
      <trkpt lat="45.92483" lon="6.51965">
        <ele>2170.3</ele>
        <time>2014-02-16T11:36:32Z</time>
      </trkpt>
      <trkpt lat="45.92481" lon="6.51965">
        <ele>2168.4</ele>
        <time>2014-02-16T11:36:43Z</time>
      </trkpt>
      <trkpt lat="45.92485" lon="6.51969">
        <ele>2168.9</ele>
        <time>2014-02-16T11:36:54Z</time>
      </trkpt>
      <trkpt lat="45.92485" lon="6.51974">
        <ele>2170.3</ele>
        <time>2014-02-16T11:37:05Z</time>
      </trkpt>
      <trkpt lat="45.92482" lon="6.51986">
        <ele>2172.7</ele>
        <time>2014-02-16T11:37:19Z</time>
      </trkpt>
      <trkpt lat="45.92477" lon="6.51999">
        <ele>2176.1</ele>
        <time>2014-02-16T11:37:39Z</time>
      </trkpt>
      <trkpt lat="45.92477" lon="6.52006">
        <ele>2178.5</ele>
        <time>2014-02-16T11:37:56Z</time>
      </trkpt>
      <trkpt lat="45.92475" lon="6.52011">
        <ele>2179.9</ele>
        <time>2014-02-16T11:38:10Z</time>
      </trkpt>
      <trkpt lat="45.92471" lon="6.52023">
        <ele>2182.3</ele>
        <time>2014-02-16T11:38:27Z</time>
      </trkpt>
      <trkpt lat="45.92468" lon="6.52031">
        <ele>2184.3</ele>
        <time>2014-02-16T11:38:41Z</time>
      </trkpt>
      <trkpt lat="45.92468" lon="6.52034">
        <ele>2183.8</ele>
        <time>2014-02-16T11:38:51Z</time>
      </trkpt>
      <trkpt lat="45.92467" lon="6.52029">
        <ele>2185.2</ele>
        <time>2014-02-16T11:39:04Z</time>
      </trkpt>
      <trkpt lat="45.92467" lon="6.52024">
        <ele>2184.3</ele>
        <time>2014-02-16T11:39:16Z</time>
      </trkpt>
      <trkpt lat="45.92467" lon="6.52021">
        <ele>2185.7</ele>
        <time>2014-02-16T11:39:26Z</time>
      </trkpt>
      <trkpt lat="45.92466" lon="6.52011">
        <ele>2185.7</ele>
        <time>2014-02-16T11:39:41Z</time>
      </trkpt>
      <trkpt lat="45.9246" lon="6.52006">
        <ele>2187.1</ele>
        <time>2014-02-16T11:39:55Z</time>
      </trkpt>
      <trkpt lat="45.92453" lon="6.52027">
        <ele>2188.1</ele>
        <time>2014-02-16T11:40:17Z</time>
      </trkpt>
      <trkpt lat="45.92451" lon="6.52048">
        <ele>2187.6</ele>
        <time>2014-02-16T11:40:36Z</time>
      </trkpt>
      <trkpt lat="45.92451" lon="6.52067">
        <ele>2190</ele>
        <time>2014-02-16T11:40:57Z</time>
      </trkpt>
      <trkpt lat="45.92445" lon="6.52077">
        <ele>2187.1</ele>
        <time>2014-02-16T11:41:13Z</time>
      </trkpt>
      <trkpt lat="45.92441" lon="6.5209">
        <ele>2189.1</ele>
        <time>2014-02-16T11:41:31Z</time>
      </trkpt>
      <trkpt lat="45.92437" lon="6.52106">
        <ele>2190</ele>
        <time>2014-02-16T11:41:53Z</time>
      </trkpt>
      <trkpt lat="45.92434" lon="6.5213">
        <ele>2194.8</ele>
        <time>2014-02-16T11:42:19Z</time>
      </trkpt>
      <trkpt lat="45.92431" lon="6.52149">
        <ele>2196.3</ele>
        <time>2014-02-16T11:42:41Z</time>
      </trkpt>
      <trkpt lat="45.92429" lon="6.52173">
        <ele>2198.7</ele>
        <time>2014-02-16T11:43:02Z</time>
      </trkpt>
      <trkpt lat="45.92429" lon="6.52202">
        <ele>2200.1</ele>
        <time>2014-02-16T11:43:25Z</time>
      </trkpt>
      <trkpt lat="45.92428" lon="6.5223">
        <ele>2198.7</ele>
        <time>2014-02-16T11:43:47Z</time>
      </trkpt>
      <trkpt lat="45.92425" lon="6.52246">
        <ele>2200.6</ele>
        <time>2014-02-16T11:44:05Z</time>
      </trkpt>
      <trkpt lat="45.92423" lon="6.52262">
        <ele>2202.5</ele>
        <time>2014-02-16T11:44:25Z</time>
      </trkpt>
      <trkpt lat="45.92418" lon="6.52273">
        <ele>2202.5</ele>
        <time>2014-02-16T11:44:42Z</time>
      </trkpt>
      <trkpt lat="45.92415" lon="6.52285">
        <ele>2203.5</ele>
        <time>2014-02-16T11:44:58Z</time>
      </trkpt>
      <trkpt lat="45.92415" lon="6.5231">
        <ele>2208.8</ele>
        <time>2014-02-16T11:45:21Z</time>
      </trkpt>
      <trkpt lat="45.92411" lon="6.52337">
        <ele>2213.6</ele>
        <time>2014-02-16T11:45:50Z</time>
      </trkpt>
      <trkpt lat="45.9241" lon="6.52354">
        <ele>2214.5</ele>
        <time>2014-02-16T11:46:12Z</time>
      </trkpt>
      <trkpt lat="45.92409" lon="6.52368">
        <ele>2216.5</ele>
        <time>2014-02-16T11:46:28Z</time>
      </trkpt>
      <trkpt lat="45.92408" lon="6.5238">
        <ele>2217.4</ele>
        <time>2014-02-16T11:46:43Z</time>
      </trkpt>
      <trkpt lat="45.9241" lon="6.52396">
        <ele>2218.4</ele>
        <time>2014-02-16T11:47:00Z</time>
      </trkpt>
      <trkpt lat="45.9241" lon="6.52411">
        <ele>2220.8</ele>
        <time>2014-02-16T11:47:19Z</time>
      </trkpt>
      <trkpt lat="45.92409" lon="6.52432">
        <ele>2223.2</ele>
        <time>2014-02-16T11:47:43Z</time>
      </trkpt>
      <trkpt lat="45.92409" lon="6.52443">
        <ele>2224.1</ele>
        <time>2014-02-16T11:47:59Z</time>
      </trkpt>
      <trkpt lat="45.92412" lon="6.52467">
        <ele>2229</ele>
        <time>2014-02-16T11:48:25Z</time>
      </trkpt>
      <trkpt lat="45.92409" lon="6.52472">
        <ele>2232.3</ele>
        <time>2014-02-16T11:48:37Z</time>
      </trkpt>
      <trkpt lat="45.92405" lon="6.52475">
        <ele>2233.3</ele>
        <time>2014-02-16T11:48:54Z</time>
      </trkpt>
      <trkpt lat="45.92407" lon="6.52488">
        <ele>2237.1</ele>
        <time>2014-02-16T11:49:10Z</time>
      </trkpt>
      <trkpt lat="45.92402" lon="6.52486">
        <ele>2238.1</ele>
        <time>2014-02-16T11:49:22Z</time>
      </trkpt>
      <trkpt lat="45.92395" lon="6.52483">
        <ele>2241.5</ele>
        <time>2014-02-16T11:49:42Z</time>
      </trkpt>
      <trkpt lat="45.92394" lon="6.52498">
        <ele>2243.4</ele>
        <time>2014-02-16T11:50:01Z</time>
      </trkpt>
      <trkpt lat="45.92397" lon="6.52511">
        <ele>2244.8</ele>
        <time>2014-02-16T11:50:20Z</time>
      </trkpt>
      <trkpt lat="45.92391" lon="6.5251">
        <ele>2246.3</ele>
        <time>2014-02-16T11:50:33Z</time>
      </trkpt>
      <trkpt lat="45.92384" lon="6.52513">
        <ele>2249.1</ele>
        <time>2014-02-16T11:50:45Z</time>
      </trkpt>
      <trkpt lat="45.92385" lon="6.52527">
        <ele>2252</ele>
        <time>2014-02-16T11:51:03Z</time>
      </trkpt>
      <trkpt lat="45.92391" lon="6.5254">
        <ele>2253.9</ele>
        <time>2014-02-16T11:51:25Z</time>
      </trkpt>
      <trkpt lat="45.92393" lon="6.52544">
        <ele>2253.5</ele>
        <time>2014-02-16T11:51:37Z</time>
      </trkpt>
      <trkpt lat="45.92388" lon="6.52541">
        <ele>2253.9</ele>
        <time>2014-02-16T11:51:47Z</time>
      </trkpt>
      <trkpt lat="45.92383" lon="6.52534">
        <ele>2255.9</ele>
        <time>2014-02-16T11:52:00Z</time>
      </trkpt>
      <trkpt lat="45.92381" lon="6.52531">
        <ele>2256.8</ele>
        <time>2014-02-16T11:52:10Z</time>
      </trkpt>
      <trkpt lat="45.92381" lon="6.52536">
        <ele>2257.3</ele>
        <time>2014-02-16T11:52:24Z</time>
      </trkpt>
      <trkpt lat="45.92379" lon="6.52549">
        <ele>2259.7</ele>
        <time>2014-02-16T11:52:36Z</time>
      </trkpt>
      <trkpt lat="45.92382" lon="6.52563">
        <ele>2256.8</ele>
        <time>2014-02-16T11:52:50Z</time>
      </trkpt>
      <trkpt lat="45.92391" lon="6.52577">
        <ele>2254.9</ele>
        <time>2014-02-16T11:53:08Z</time>
      </trkpt>
      <trkpt lat="45.92389" lon="6.5258">
        <ele>2254.9</ele>
        <time>2014-02-16T11:53:21Z</time>
      </trkpt>
      <trkpt lat="45.92381" lon="6.52574">
        <ele>2259.2</ele>
        <time>2014-02-16T11:53:39Z</time>
      </trkpt>
      <trkpt lat="45.92378" lon="6.52573">
        <ele>2259.2</ele>
        <time>2014-02-16T11:53:54Z</time>
      </trkpt>
      <trkpt lat="45.92379" lon="6.52588">
        <ele>2259.2</ele>
        <time>2014-02-16T11:54:07Z</time>
      </trkpt>
      <trkpt lat="45.92386" lon="6.52606">
        <ele>2261.2</ele>
        <time>2014-02-16T11:54:26Z</time>
      </trkpt>
      <trkpt lat="45.92394" lon="6.52618">
        <ele>2258.8</ele>
        <time>2014-02-16T11:54:43Z</time>
      </trkpt>
      <trkpt lat="45.92391" lon="6.52619">
        <ele>2261.6</ele>
        <time>2014-02-16T11:54:53Z</time>
      </trkpt>
      <trkpt lat="45.92385" lon="6.52613">
        <ele>2264</ele>
        <time>2014-02-16T11:55:06Z</time>
      </trkpt>
      <trkpt lat="45.92378" lon="6.52607">
        <ele>2266.4</ele>
        <time>2014-02-16T11:55:27Z</time>
      </trkpt>
      <trkpt lat="45.92379" lon="6.52612">
        <ele>2267.9</ele>
        <time>2014-02-16T11:55:42Z</time>
      </trkpt>
      <trkpt lat="45.92384" lon="6.52627">
        <ele>2272.2</ele>
        <time>2014-02-16T11:56:03Z</time>
      </trkpt>
      <trkpt lat="45.92388" lon="6.52635">
        <ele>2276.1</ele>
        <time>2014-02-16T11:56:22Z</time>
      </trkpt>
      <trkpt lat="45.92392" lon="6.5264">
        <ele>2277.5</ele>
        <time>2014-02-16T11:56:35Z</time>
      </trkpt>
      <trkpt lat="45.92395" lon="6.52645">
        <ele>2277.5</ele>
        <time>2014-02-16T11:56:48Z</time>
      </trkpt>
      <trkpt lat="45.92398" lon="6.52648">
        <ele>2277.5</ele>
        <time>2014-02-16T11:57:01Z</time>
      </trkpt>
      <trkpt lat="45.92402" lon="6.5265">
        <ele>2279.9</ele>
        <time>2014-02-16T11:57:15Z</time>
      </trkpt>
      <trkpt lat="45.92407" lon="6.52654">
        <ele>2280.9</ele>
        <time>2014-02-16T11:57:31Z</time>
      </trkpt>
      <trkpt lat="45.92408" lon="6.52654">
        <ele>2282.3</ele>
        <time>2014-02-16T11:57:50Z</time>
      </trkpt>
      <trkpt lat="45.9241" lon="6.52655">
        <ele>2282.8</ele>
        <time>2014-02-16T11:58:00Z</time>
      </trkpt>
      <trkpt lat="45.92413" lon="6.52655">
        <ele>2283.7</ele>
        <time>2014-02-16T11:58:10Z</time>
      </trkpt>
      <trkpt lat="45.92418" lon="6.52656">
        <ele>2286.2</ele>
        <time>2014-02-16T11:58:22Z</time>
      </trkpt>
      <trkpt lat="45.92421" lon="6.52656">
        <ele>2286.6</ele>
        <time>2014-02-16T11:58:34Z</time>
      </trkpt>
      <trkpt lat="45.92421" lon="6.52655">
        <ele>2286.6</ele>
        <time>2014-02-16T11:58:50Z</time>
      </trkpt>
      <trkpt lat="45.92419" lon="6.52657">
        <ele>2287.6</ele>
        <time>2014-02-16T11:59:05Z</time>
      </trkpt>
      <trkpt lat="45.92419" lon="6.52661">
        <ele>2293.4</ele>
        <time>2014-02-16T11:59:23Z</time>
      </trkpt>
      <trkpt lat="45.92419" lon="6.52663">
        <ele>2296.2</ele>
        <time>2014-02-16T11:59:36Z</time>
      </trkpt>
      <trkpt lat="45.92419" lon="6.52664">
        <ele>2298.6</ele>
        <time>2014-02-16T11:59:48Z</time>
      </trkpt>
      <trkpt lat="45.92417" lon="6.52667">
        <ele>2299.6</ele>
        <time>2014-02-16T12:00:05Z</time>
      </trkpt>
      <trkpt lat="45.92414" lon="6.52666">
        <ele>2301.1</ele>
        <time>2014-02-16T12:00:19Z</time>
      </trkpt>
      <trkpt lat="45.92413" lon="6.52667">
        <ele>2300.6</ele>
        <time>2014-02-16T12:00:37Z</time>
      </trkpt>
      <trkpt lat="45.92413" lon="6.52666">
        <ele>2300.6</ele>
        <time>2014-02-16T12:02:03Z</time>
      </trkpt>
      <trkpt lat="45.92413" lon="6.52666">
        <ele>2300.1</ele>
        <time>2014-02-16T12:02:52Z</time>
      </trkpt>
      <trkpt lat="45.92413" lon="6.52666">
        <ele>2300.6</ele>
        <time>2014-02-16T12:03:26Z</time>
      </trkpt>
      <trkpt lat="45.92415" lon="6.52666">
        <ele>2300.6</ele>
        <time>2014-02-16T12:03:44Z</time>
      </trkpt>
      <trkpt lat="45.92416" lon="6.52668">
        <ele>2302.5</ele>
        <time>2014-02-16T12:04:19Z</time>
      </trkpt>
      <trkpt lat="45.92418" lon="6.52667">
        <ele>2302.5</ele>
        <time>2014-02-16T12:04:36Z</time>
      </trkpt>
      <trkpt lat="45.92422" lon="6.52667">
        <ele>2303.5</ele>
        <time>2014-02-16T12:05:02Z</time>
      </trkpt>
      <trkpt lat="45.92422" lon="6.52668">
        <ele>2303.5</ele>
        <time>2014-02-16T12:05:24Z</time>
      </trkpt>
      <trkpt lat="45.92424" lon="6.52666">
        <ele>2303</ele>
        <time>2014-02-16T12:05:47Z</time>
      </trkpt>
      <trkpt lat="45.92426" lon="6.52666">
        <ele>2303.5</ele>
        <time>2014-02-16T12:06:06Z</time>
      </trkpt>
      <trkpt lat="45.92429" lon="6.52665">
        <ele>2303.9</ele>
        <time>2014-02-16T12:06:18Z</time>
      </trkpt>
      <trkpt lat="45.92432" lon="6.52664">
        <ele>2306.3</ele>
        <time>2014-02-16T12:06:30Z</time>
      </trkpt>
      <trkpt lat="45.92431" lon="6.52666">
        <ele>2307.8</ele>
        <time>2014-02-16T12:06:45Z</time>
      </trkpt>
      <trkpt lat="45.92426" lon="6.52669">
        <ele>2309.2</ele>
        <time>2014-02-16T12:06:58Z</time>
      </trkpt>
      <trkpt lat="45.92426" lon="6.52668">
        <ele>2309.2</ele>
        <time>2014-02-16T12:07:18Z</time>
      </trkpt>
      <trkpt lat="45.92428" lon="6.52669">
        <ele>2309.7</ele>
        <time>2014-02-16T12:07:32Z</time>
      </trkpt>
      <trkpt lat="45.92429" lon="6.5267">
        <ele>2310.2</ele>
        <time>2014-02-16T12:07:45Z</time>
      </trkpt>
      <trkpt lat="45.92431" lon="6.52671">
        <ele>2311.6</ele>
        <time>2014-02-16T12:08:03Z</time>
      </trkpt>
      <trkpt lat="45.92434" lon="6.52672">
        <ele>2313.1</ele>
        <time>2014-02-16T12:08:14Z</time>
      </trkpt>
      <trkpt lat="45.92432" lon="6.52674">
        <ele>2313.1</ele>
        <time>2014-02-16T12:08:33Z</time>
      </trkpt>
      <trkpt lat="45.9243" lon="6.52675">
        <ele>2313.5</ele>
        <time>2014-02-16T12:08:45Z</time>
      </trkpt>
      <trkpt lat="45.9243" lon="6.52676">
        <ele>2313.5</ele>
        <time>2014-02-16T12:09:06Z</time>
      </trkpt>
      <trkpt lat="45.92432" lon="6.52675">
        <ele>2313.5</ele>
        <time>2014-02-16T12:09:18Z</time>
      </trkpt>
      <trkpt lat="45.9243" lon="6.52678">
        <ele>2315.5</ele>
        <time>2014-02-16T12:09:37Z</time>
      </trkpt>
      <trkpt lat="45.92427" lon="6.52683">
        <ele>2317.4</ele>
        <time>2014-02-16T12:09:49Z</time>
      </trkpt>
      <trkpt lat="45.92425" lon="6.52687">
        <ele>2318.4</ele>
        <time>2014-02-16T12:10:01Z</time>
      </trkpt>
      <trkpt lat="45.92425" lon="6.52687">
        <ele>2320.3</ele>
        <time>2014-02-16T12:10:13Z</time>
      </trkpt>
      <trkpt lat="45.92425" lon="6.52688">
        <ele>2320.8</ele>
        <time>2014-02-16T12:10:39Z</time>
      </trkpt>
      <trkpt lat="45.92427" lon="6.52689">
        <ele>2322.2</ele>
        <time>2014-02-16T12:10:48Z</time>
      </trkpt>
      <trkpt lat="45.9243" lon="6.5269">
        <ele>2321.7</ele>
        <time>2014-02-16T12:10:59Z</time>
      </trkpt>
      <trkpt lat="45.92432" lon="6.52691">
        <ele>2322.2</ele>
        <time>2014-02-16T12:11:12Z</time>
      </trkpt>
      <trkpt lat="45.92431" lon="6.52693">
        <ele>2321.7</ele>
        <time>2014-02-16T12:11:23Z</time>
      </trkpt>
      <trkpt lat="45.92431" lon="6.52694">
        <ele>2321.7</ele>
        <time>2014-02-16T12:11:34Z</time>
      </trkpt>
      <trkpt lat="45.9243" lon="6.52695">
        <ele>2322.7</ele>
        <time>2014-02-16T12:11:51Z</time>
      </trkpt>
      <trkpt lat="45.92422" lon="6.52706">
        <ele>2326.5</ele>
        <time>2014-02-16T12:12:16Z</time>
      </trkpt>
      <trkpt lat="45.92415" lon="6.5271">
        <ele>2329.9</ele>
        <time>2014-02-16T12:12:32Z</time>
      </trkpt>
      <trkpt lat="45.92411" lon="6.52711">
        <ele>2330.4</ele>
        <time>2014-02-16T12:12:47Z</time>
      </trkpt>
      <trkpt lat="45.92412" lon="6.52711">
        <ele>2328.5</ele>
        <time>2014-02-16T12:13:02Z</time>
      </trkpt>
      <trkpt lat="45.92406" lon="6.52712">
        <ele>2330.9</ele>
        <time>2014-02-16T12:13:16Z</time>
      </trkpt>
      <trkpt lat="45.92408" lon="6.52713">
        <ele>2331.3</ele>
        <time>2014-02-16T12:13:35Z</time>
      </trkpt>
      <trkpt lat="45.92418" lon="6.52726">
        <ele>2333.3</ele>
        <time>2014-02-16T12:13:59Z</time>
      </trkpt>
      <trkpt lat="45.92419" lon="6.5273">
        <ele>2333.3</ele>
        <time>2014-02-16T12:14:13Z</time>
      </trkpt>
      <trkpt lat="45.92411" lon="6.52734">
        <ele>2336.6</ele>
        <time>2014-02-16T12:14:28Z</time>
      </trkpt>
      <trkpt lat="45.92405" lon="6.52736">
        <ele>2338.1</ele>
        <time>2014-02-16T12:14:45Z</time>
      </trkpt>
      <trkpt lat="45.92408" lon="6.52741">
        <ele>2339.5</ele>
        <time>2014-02-16T12:14:59Z</time>
      </trkpt>
      <trkpt lat="45.9242" lon="6.52757">
        <ele>2340.9</ele>
        <time>2014-02-16T12:15:24Z</time>
      </trkpt>
      <trkpt lat="45.92414" lon="6.52764">
        <ele>2344.8</ele>
        <time>2014-02-16T12:15:39Z</time>
      </trkpt>
      <trkpt lat="45.92407" lon="6.52769">
        <ele>2347.2</ele>
        <time>2014-02-16T12:15:58Z</time>
      </trkpt>
      <trkpt lat="45.9241" lon="6.52782">
        <ele>2348.6</ele>
        <time>2014-02-16T12:16:16Z</time>
      </trkpt>
      <trkpt lat="45.92415" lon="6.52797">
        <ele>2350.6</ele>
        <time>2014-02-16T12:16:39Z</time>
      </trkpt>
      <trkpt lat="45.92416" lon="6.52797">
        <ele>2351</ele>
        <time>2014-02-16T12:17:00Z</time>
      </trkpt>
      <trkpt lat="45.92416" lon="6.52797">
        <ele>2351</ele>
        <time>2014-02-16T12:17:48Z</time>
      </trkpt>
      <trkpt lat="45.92416" lon="6.52796">
        <ele>2351</ele>
        <time>2014-02-16T12:18:25Z</time>
      </trkpt>
      <trkpt lat="45.92416" lon="6.52796">
        <ele>2351</ele>
        <time>2014-02-16T12:19:08Z</time>
      </trkpt>
      <trkpt lat="45.92416" lon="6.52797">
        <ele>2351</ele>
        <time>2014-02-16T12:19:42Z</time>
      </trkpt>
      <trkpt lat="45.92416" lon="6.52797">
        <ele>2350.6</ele>
        <time>2014-02-16T12:20:18Z</time>
      </trkpt>
      <trkpt lat="45.92416" lon="6.52797">
        <ele>2349.1</ele>
        <time>2014-02-16T12:20:34Z</time>
      </trkpt>
      <trkpt lat="45.92416" lon="6.52796">
        <ele>2349.1</ele>
        <time>2014-02-16T12:21:09Z</time>
      </trkpt>
      <trkpt lat="45.92414" lon="6.52796">
        <ele>2349.6</ele>
        <time>2014-02-16T12:21:28Z</time>
      </trkpt>
      <trkpt lat="45.92414" lon="6.52796">
        <ele>2349.6</ele>
        <time>2014-02-16T12:21:53Z</time>
      </trkpt>
      <trkpt lat="45.92414" lon="6.528">
        <ele>2350.6</ele>
        <time>2014-02-16T12:22:13Z</time>
      </trkpt>
      <trkpt lat="45.92407" lon="6.52804">
        <ele>2353</ele>
        <time>2014-02-16T12:23:20Z</time>
      </trkpt>
      <trkpt lat="45.92399" lon="6.52801">
        <ele>2355.8</ele>
        <time>2014-02-16T12:23:38Z</time>
      </trkpt>
      <trkpt lat="45.92404" lon="6.52809">
        <ele>2357.3</ele>
        <time>2014-02-16T12:23:51Z</time>
      </trkpt>
      <trkpt lat="45.92408" lon="6.5282">
        <ele>2358.3</ele>
        <time>2014-02-16T12:24:05Z</time>
      </trkpt>
      <trkpt lat="45.92413" lon="6.5283">
        <ele>2358.3</ele>
        <time>2014-02-16T12:24:22Z</time>
      </trkpt>
      <trkpt lat="45.92417" lon="6.52838">
        <ele>2359.2</ele>
        <time>2014-02-16T12:24:36Z</time>
      </trkpt>
      <trkpt lat="45.92421" lon="6.52843">
        <ele>2361.1</ele>
        <time>2014-02-16T12:24:53Z</time>
      </trkpt>
      <trkpt lat="45.92405" lon="6.52843">
        <ele>2367.4</ele>
        <time>2014-02-16T12:25:21Z</time>
      </trkpt>
      <trkpt lat="45.92402" lon="6.52844">
        <ele>2369.3</ele>
        <time>2014-02-16T12:25:38Z</time>
      </trkpt>
      <trkpt lat="45.92406" lon="6.52855">
        <ele>2370.7</ele>
        <time>2014-02-16T12:25:55Z</time>
      </trkpt>
      <trkpt lat="45.9241" lon="6.52862">
        <ele>2371.2</ele>
        <time>2014-02-16T12:26:08Z</time>
      </trkpt>
      <trkpt lat="45.92417" lon="6.52867">
        <ele>2372.2</ele>
        <time>2014-02-16T12:26:24Z</time>
      </trkpt>
      <trkpt lat="45.92424" lon="6.52868">
        <ele>2373.6</ele>
        <time>2014-02-16T12:26:39Z</time>
      </trkpt>
      <trkpt lat="45.92436" lon="6.5287">
        <ele>2376</ele>
        <time>2014-02-16T12:27:02Z</time>
      </trkpt>
      <trkpt lat="45.9244" lon="6.52873">
        <ele>2377.5</ele>
        <time>2014-02-16T12:27:18Z</time>
      </trkpt>
      <trkpt lat="45.92436" lon="6.52879">
        <ele>2378.9</ele>
        <time>2014-02-16T12:27:30Z</time>
      </trkpt>
      <trkpt lat="45.92426" lon="6.52888">
        <ele>2382.3</ele>
        <time>2014-02-16T12:27:52Z</time>
      </trkpt>
      <trkpt lat="45.92422" lon="6.52891">
        <ele>2383.2</ele>
        <time>2014-02-16T12:28:04Z</time>
      </trkpt>
      <trkpt lat="45.92426" lon="6.52893">
        <ele>2383.2</ele>
        <time>2014-02-16T12:28:15Z</time>
      </trkpt>
      <trkpt lat="45.92433" lon="6.52897">
        <ele>2383.7</ele>
        <time>2014-02-16T12:28:27Z</time>
      </trkpt>
      <trkpt lat="45.92438" lon="6.52899">
        <ele>2385.6</ele>
        <time>2014-02-16T12:28:40Z</time>
      </trkpt>
      <trkpt lat="45.92432" lon="6.52906">
        <ele>2388.1</ele>
        <time>2014-02-16T12:28:54Z</time>
      </trkpt>
      <trkpt lat="45.92424" lon="6.52913">
        <ele>2390</ele>
        <time>2014-02-16T12:29:15Z</time>
      </trkpt>
      <trkpt lat="45.92425" lon="6.52916">
        <ele>2390.5</ele>
        <time>2014-02-16T12:29:24Z</time>
      </trkpt>
      <trkpt lat="45.92433" lon="6.52921">
        <ele>2391.4</ele>
        <time>2014-02-16T12:29:40Z</time>
      </trkpt>
      <trkpt lat="45.92443" lon="6.52924">
        <ele>2392.9</ele>
        <time>2014-02-16T12:29:59Z</time>
      </trkpt>
      <trkpt lat="45.92435" lon="6.52935">
        <ele>2396.2</ele>
        <time>2014-02-16T12:30:16Z</time>
      </trkpt>
      <trkpt lat="45.92426" lon="6.5294">
        <ele>2399.6</ele>
        <time>2014-02-16T12:30:37Z</time>
      </trkpt>
      <trkpt lat="45.92433" lon="6.52948">
        <ele>2401</ele>
        <time>2014-02-16T12:30:50Z</time>
      </trkpt>
      <trkpt lat="45.92444" lon="6.52953">
        <ele>2402</ele>
        <time>2014-02-16T12:31:10Z</time>
      </trkpt>
      <trkpt lat="45.92443" lon="6.52956">
        <ele>2403.4</ele>
        <time>2014-02-16T12:31:21Z</time>
      </trkpt>
      <trkpt lat="45.92434" lon="6.52963">
        <ele>2408.2</ele>
        <time>2014-02-16T12:31:39Z</time>
      </trkpt>
      <trkpt lat="45.92433" lon="6.52965">
        <ele>2410.2</ele>
        <time>2014-02-16T12:31:53Z</time>
      </trkpt>
      <trkpt lat="45.92439" lon="6.52971">
        <ele>2410.6</ele>
        <time>2014-02-16T12:32:07Z</time>
      </trkpt>
      <trkpt lat="45.92446" lon="6.52973">
        <ele>2410.6</ele>
        <time>2014-02-16T12:32:20Z</time>
      </trkpt>
      <trkpt lat="45.92444" lon="6.52974">
        <ele>2412.1</ele>
        <time>2014-02-16T12:32:31Z</time>
      </trkpt>
      <trkpt lat="45.92431" lon="6.52975">
        <ele>2414</ele>
        <time>2014-02-16T12:32:53Z</time>
      </trkpt>
      <trkpt lat="45.92436" lon="6.52981">
        <ele>2416.9</ele>
        <time>2014-02-16T12:33:08Z</time>
      </trkpt>
      <trkpt lat="45.92448" lon="6.52991">
        <ele>2419.8</ele>
        <time>2014-02-16T12:33:31Z</time>
      </trkpt>
      <trkpt lat="45.92447" lon="6.52995">
        <ele>2417.4</ele>
        <time>2014-02-16T12:33:43Z</time>
      </trkpt>
      <trkpt lat="45.92438" lon="6.52996">
        <ele>2421.7</ele>
        <time>2014-02-16T12:34:00Z</time>
      </trkpt>
      <trkpt lat="45.92434" lon="6.52995">
        <ele>2421.7</ele>
        <time>2014-02-16T12:34:14Z</time>
      </trkpt>
      <trkpt lat="45.92437" lon="6.53">
        <ele>2423.6</ele>
        <time>2014-02-16T12:34:24Z</time>
      </trkpt>
      <trkpt lat="45.92447" lon="6.53008">
        <ele>2425.5</ele>
        <time>2014-02-16T12:34:43Z</time>
      </trkpt>
      <trkpt lat="45.92459" lon="6.53009">
        <ele>2427</ele>
        <time>2014-02-16T12:35:00Z</time>
      </trkpt>
      <trkpt lat="45.92458" lon="6.53009">
        <ele>2428.9</ele>
        <time>2014-02-16T12:35:14Z</time>
      </trkpt>
      <trkpt lat="45.92448" lon="6.53013">
        <ele>2431.8</ele>
        <time>2014-02-16T12:35:33Z</time>
      </trkpt>
      <trkpt lat="45.92451" lon="6.53014">
        <ele>2431.8</ele>
        <time>2014-02-16T12:35:46Z</time>
      </trkpt>
      <trkpt lat="45.9246" lon="6.53014">
        <ele>2432.8</ele>
        <time>2014-02-16T12:36:00Z</time>
      </trkpt>
      <trkpt lat="45.92469" lon="6.53012">
        <ele>2435.2</ele>
        <time>2014-02-16T12:36:18Z</time>
      </trkpt>
      <trkpt lat="45.92465" lon="6.53018">
        <ele>2436.1</ele>
        <time>2014-02-16T12:36:29Z</time>
      </trkpt>
      <trkpt lat="45.92454" lon="6.53027">
        <ele>2440</ele>
        <time>2014-02-16T12:36:49Z</time>
      </trkpt>
      <trkpt lat="45.92451" lon="6.53027">
        <ele>2441.9</ele>
        <time>2014-02-16T12:37:07Z</time>
      </trkpt>
      <trkpt lat="45.92452" lon="6.53032">
        <ele>2444.3</ele>
        <time>2014-02-16T12:37:24Z</time>
      </trkpt>
      <trkpt lat="45.92461" lon="6.53035">
        <ele>2445.3</ele>
        <time>2014-02-16T12:37:37Z</time>
      </trkpt>
      <trkpt lat="45.9247" lon="6.53033">
        <ele>2445.7</ele>
        <time>2014-02-16T12:37:51Z</time>
      </trkpt>
      <trkpt lat="45.92478" lon="6.5303">
        <ele>2446.7</ele>
        <time>2014-02-16T12:38:04Z</time>
      </trkpt>
      <trkpt lat="45.92481" lon="6.53028">
        <ele>2446.2</ele>
        <time>2014-02-16T12:38:17Z</time>
      </trkpt>
      <trkpt lat="45.9248" lon="6.53031">
        <ele>2446.7</ele>
        <time>2014-02-16T12:38:28Z</time>
      </trkpt>
      <trkpt lat="45.92475" lon="6.53037">
        <ele>2448.1</ele>
        <time>2014-02-16T12:38:41Z</time>
      </trkpt>
      <trkpt lat="45.92469" lon="6.53045">
        <ele>2450.5</ele>
        <time>2014-02-16T12:38:54Z</time>
      </trkpt>
      <trkpt lat="45.92466" lon="6.53048">
        <ele>2450.5</ele>
        <time>2014-02-16T12:39:07Z</time>
      </trkpt>
      <trkpt lat="45.92466" lon="6.53048">
        <ele>2451.5</ele>
        <time>2014-02-16T12:39:36Z</time>
      </trkpt>
      <trkpt lat="45.92467" lon="6.53048">
        <ele>2451</ele>
        <time>2014-02-16T12:40:09Z</time>
      </trkpt>
      <trkpt lat="45.92469" lon="6.53048">
        <ele>2451</ele>
        <time>2014-02-16T12:40:22Z</time>
      </trkpt>
      <trkpt lat="45.92471" lon="6.53048">
        <ele>2451.5</ele>
        <time>2014-02-16T12:40:48Z</time>
      </trkpt>
      <trkpt lat="45.92474" lon="6.53048">
        <ele>2452</ele>
        <time>2014-02-16T12:40:56Z</time>
      </trkpt>
      <trkpt lat="45.9248" lon="6.53044">
        <ele>2453.4</ele>
        <time>2014-02-16T12:41:08Z</time>
      </trkpt>
      <trkpt lat="45.92488" lon="6.53041">
        <ele>2455.8</ele>
        <time>2014-02-16T12:41:21Z</time>
      </trkpt>
      <trkpt lat="45.92489" lon="6.53038">
        <ele>2455.8</ele>
        <time>2014-02-16T12:41:32Z</time>
      </trkpt>
      <trkpt lat="45.92492" lon="6.53037">
        <ele>2456.8</ele>
        <time>2014-02-16T12:42:03Z</time>
      </trkpt>
      <trkpt lat="45.92491" lon="6.5304">
        <ele>2457.3</ele>
        <time>2014-02-16T12:42:15Z</time>
      </trkpt>
      <trkpt lat="45.92488" lon="6.53046">
        <ele>2459.2</ele>
        <time>2014-02-16T12:42:26Z</time>
      </trkpt>
      <trkpt lat="45.92491" lon="6.53049">
        <ele>2456.8</ele>
        <time>2014-02-16T12:42:37Z</time>
      </trkpt>
      <trkpt lat="45.92497" lon="6.53046">
        <ele>2454.9</ele>
        <time>2014-02-16T12:42:50Z</time>
      </trkpt>
      <trkpt lat="45.92503" lon="6.53039">
        <ele>2454.4</ele>
        <time>2014-02-16T12:43:02Z</time>
      </trkpt>
      <trkpt lat="45.92504" lon="6.53039">
        <ele>2455.3</ele>
        <time>2014-02-16T12:43:14Z</time>
      </trkpt>
      <trkpt lat="45.92502" lon="6.53044">
        <ele>2456.3</ele>
        <time>2014-02-16T12:43:30Z</time>
      </trkpt>
      <trkpt lat="45.92503" lon="6.53045">
        <ele>2456.3</ele>
        <time>2014-02-16T12:43:49Z</time>
      </trkpt>
      <trkpt lat="45.92507" lon="6.5304">
        <ele>2456.8</ele>
        <time>2014-02-16T12:44:03Z</time>
      </trkpt>
      <trkpt lat="45.92503" lon="6.53043">
        <ele>2457.3</ele>
        <time>2014-02-16T12:44:20Z</time>
      </trkpt>
      <trkpt lat="45.92494" lon="6.53056">
        <ele>2456.8</ele>
        <time>2014-02-16T12:44:36Z</time>
      </trkpt>
      <trkpt lat="45.92486" lon="6.53067">
        <ele>2458.2</ele>
        <time>2014-02-16T12:44:53Z</time>
      </trkpt>
      <trkpt lat="45.92482" lon="6.53075">
        <ele>2459.7</ele>
        <time>2014-02-16T12:45:08Z</time>
      </trkpt>
      <trkpt lat="45.92477" lon="6.5308">
        <ele>2461.6</ele>
        <time>2014-02-16T12:45:22Z</time>
      </trkpt>
      <trkpt lat="45.92472" lon="6.53086">
        <ele>2463</ele>
        <time>2014-02-16T12:45:36Z</time>
      </trkpt>
      <trkpt lat="45.92468" lon="6.53092">
        <ele>2465</ele>
        <time>2014-02-16T12:45:49Z</time>
      </trkpt>
      <trkpt lat="45.92465" lon="6.53095">
        <ele>2465</ele>
        <time>2014-02-16T12:46:04Z</time>
      </trkpt>
      <trkpt lat="45.92465" lon="6.53098">
        <ele>2465.4</ele>
        <time>2014-02-16T12:46:24Z</time>
      </trkpt>
      <trkpt lat="45.92468" lon="6.53099">
        <ele>2465.9</ele>
        <time>2014-02-16T12:46:37Z</time>
      </trkpt>
      <trkpt lat="45.92467" lon="6.53098">
        <ele>2465.4</ele>
        <time>2014-02-16T12:47:17Z</time>
      </trkpt>
      <trkpt lat="45.92468" lon="6.53098">
        <ele>2465.4</ele>
        <time>2014-02-16T12:47:35Z</time>
      </trkpt>
      <trkpt lat="45.92467" lon="6.53094">
        <ele>2463.5</ele>
        <time>2014-02-16T12:47:54Z</time>
      </trkpt>
      <trkpt lat="45.92461" lon="6.5309">
        <ele>2461.1</ele>
        <time>2014-02-16T12:48:03Z</time>
      </trkpt>
      <trkpt lat="45.92455" lon="6.53088">
        <ele>2457.7</ele>
        <time>2014-02-16T12:48:17Z</time>
      </trkpt>
      <trkpt lat="45.92451" lon="6.53083">
        <ele>2455.3</ele>
        <time>2014-02-16T12:48:29Z</time>
      </trkpt>
      <trkpt lat="45.9245" lon="6.53082">
        <ele>2455.8</ele>
        <time>2014-02-16T12:48:46Z</time>
      </trkpt>
      <trkpt lat="45.92451" lon="6.53082">
        <ele>2452.9</ele>
        <time>2014-02-16T12:49:13Z</time>
      </trkpt>
      <trkpt lat="45.9245" lon="6.53084">
        <ele>2452.5</ele>
        <time>2014-02-16T12:53:54Z</time>
      </trkpt>
      <trkpt lat="45.9245" lon="6.53083">
        <ele>2450.5</ele>
        <time>2014-02-16T13:02:20Z</time>
      </trkpt>
      <trkpt lat="45.92451" lon="6.53081">
        <ele>2451</ele>
        <time>2014-02-16T13:03:58Z</time>
      </trkpt>
      <trkpt lat="45.92451" lon="6.53081">
        <ele>2451</ele>
        <time>2014-02-16T13:05:37Z</time>
      </trkpt>
      <trkpt lat="45.92451" lon="6.5308">
        <ele>2451</ele>
        <time>2014-02-16T13:08:50Z</time>
      </trkpt>
      <trkpt lat="45.92451" lon="6.5308">
        <ele>2451</ele>
        <time>2014-02-16T13:09:17Z</time>
      </trkpt>
      <trkpt lat="45.9245" lon="6.53081">
        <ele>2450.5</ele>
        <time>2014-02-16T13:09:43Z</time>
      </trkpt>
      <trkpt lat="45.9245" lon="6.53082">
        <ele>2450.5</ele>
        <time>2014-02-16T13:09:56Z</time>
      </trkpt>
      <trkpt lat="45.9245" lon="6.53081">
        <ele>2450.5</ele>
        <time>2014-02-16T13:10:09Z</time>
      </trkpt>
      <trkpt lat="45.9245" lon="6.53084">
        <ele>2450.5</ele>
        <time>2014-02-16T13:10:25Z</time>
      </trkpt>
      <trkpt lat="45.9245" lon="6.53083">
        <ele>2450.5</ele>
        <time>2014-02-16T13:11:02Z</time>
      </trkpt>
      <trkpt lat="45.9245" lon="6.53082">
        <ele>2450.1</ele>
        <time>2014-02-16T13:11:57Z</time>
      </trkpt>
      <trkpt lat="45.9245" lon="6.53083">
        <ele>2450.1</ele>
        <time>2014-02-16T13:12:39Z</time>
      </trkpt>
      <trkpt lat="45.92449" lon="6.53082">
        <ele>2450.1</ele>
        <time>2014-02-16T13:13:06Z</time>
      </trkpt>
      <trkpt lat="45.9245" lon="6.53081">
        <ele>2449.6</ele>
        <time>2014-02-16T13:13:27Z</time>
      </trkpt>
      <trkpt lat="45.9245" lon="6.53081">
        <ele>2449.6</ele>
        <time>2014-02-16T13:13:59Z</time>
      </trkpt>
      <trkpt lat="45.9245" lon="6.53081">
        <ele>2449.6</ele>
        <time>2014-02-16T13:14:05Z</time>
      </trkpt>
      <trkpt lat="45.92453" lon="6.53066">
        <ele>2443.8</ele>
        <time>2014-02-16T13:14:09Z</time>
      </trkpt>
      <trkpt lat="45.92454" lon="6.53057">
        <ele>2440</ele>
        <time>2014-02-16T13:14:11Z</time>
      </trkpt>
      <trkpt lat="45.92451" lon="6.53028">
        <ele>2429.4</ele>
        <time>2014-02-16T13:14:16Z</time>
      </trkpt>
      <trkpt lat="45.92448" lon="6.53011">
        <ele>2421.7</ele>
        <time>2014-02-16T13:14:19Z</time>
      </trkpt>
      <trkpt lat="45.92444" lon="6.53008">
        <ele>2419.3</ele>
        <time>2014-02-16T13:14:30Z</time>
      </trkpt>
      <trkpt lat="45.92446" lon="6.53007">
        <ele>2418.8</ele>
        <time>2014-02-16T13:14:47Z</time>
      </trkpt>
      <trkpt lat="45.92442" lon="6.52994">
        <ele>2413.5</ele>
        <time>2014-02-16T13:14:51Z</time>
      </trkpt>
      <trkpt lat="45.92391" lon="6.53004">
        <ele>2409.7</ele>
        <time>2014-02-16T13:14:54Z</time>
      </trkpt>
      <trkpt lat="45.9239" lon="6.53">
        <ele>2405.4</ele>
        <time>2014-02-16T13:14:56Z</time>
      </trkpt>
      <trkpt lat="45.92435" lon="6.52948">
        <ele>2399.6</ele>
        <time>2014-02-16T13:14:59Z</time>
      </trkpt>
      <trkpt lat="45.92432" lon="6.52933">
        <ele>2395.3</ele>
        <time>2014-02-16T13:15:02Z</time>
      </trkpt>
      <trkpt lat="45.92429" lon="6.52918">
        <ele>2391.9</ele>
        <time>2014-02-16T13:15:05Z</time>
      </trkpt>
      <trkpt lat="45.92424" lon="6.52882">
        <ele>2380.8</ele>
        <time>2014-02-16T13:15:12Z</time>
      </trkpt>
      <trkpt lat="45.92425" lon="6.52865">
        <ele>2373.6</ele>
        <time>2014-02-16T13:15:15Z</time>
      </trkpt>
      <trkpt lat="45.92421" lon="6.52832">
        <ele>2355.8</ele>
        <time>2014-02-16T13:15:21Z</time>
      </trkpt>
      <trkpt lat="45.92422" lon="6.5283">
        <ele>2353</ele>
        <time>2014-02-16T13:15:29Z</time>
      </trkpt>
      <trkpt lat="45.92422" lon="6.5283">
        <ele>2353</ele>
        <time>2014-02-16T13:16:13Z</time>
      </trkpt>
      <trkpt lat="45.92422" lon="6.52831">
        <ele>2353</ele>
        <time>2014-02-16T13:16:44Z</time>
      </trkpt>
      <trkpt lat="45.92421" lon="6.5283">
        <ele>2353</ele>
        <time>2014-02-16T13:16:46Z</time>
      </trkpt>
      <trkpt lat="45.92423" lon="6.52821">
        <ele>2351</ele>
        <time>2014-02-16T13:16:49Z</time>
      </trkpt>
      <trkpt lat="45.92418" lon="6.52783">
        <ele>2341.9</ele>
        <time>2014-02-16T13:16:55Z</time>
      </trkpt>
      <trkpt lat="45.92417" lon="6.52756">
        <ele>2337.6</ele>
        <time>2014-02-16T13:17:01Z</time>
      </trkpt>
      <trkpt lat="45.92418" lon="6.52746">
        <ele>2335.2</ele>
        <time>2014-02-16T13:17:03Z</time>
      </trkpt>
      <trkpt lat="45.92414" lon="6.52736">
        <ele>2333.7</ele>
        <time>2014-02-16T13:17:11Z</time>
      </trkpt>
      <trkpt lat="45.92413" lon="6.52736">
        <ele>2333.7</ele>
        <time>2014-02-16T13:17:31Z</time>
      </trkpt>
      <trkpt lat="45.92413" lon="6.52737">
        <ele>2333.3</ele>
        <time>2014-02-16T13:17:54Z</time>
      </trkpt>
      <trkpt lat="45.92418" lon="6.5272">
        <ele>2328.5</ele>
        <time>2014-02-16T13:17:59Z</time>
      </trkpt>
      <trkpt lat="45.92422" lon="6.52706">
        <ele>2324.1</ele>
        <time>2014-02-16T13:18:03Z</time>
      </trkpt>
      <trkpt lat="45.92419" lon="6.52691">
        <ele>2318.8</ele>
        <time>2014-02-16T13:18:07Z</time>
      </trkpt>
      <trkpt lat="45.92418" lon="6.52663">
        <ele>2308.3</ele>
        <time>2014-02-16T13:18:12Z</time>
      </trkpt>
      <trkpt lat="45.92419" lon="6.52656">
        <ele>2306.3</ele>
        <time>2014-02-16T13:18:13Z</time>
      </trkpt>
      <trkpt lat="45.92416" lon="6.52629">
        <ele>2292.9</ele>
        <time>2014-02-16T13:18:18Z</time>
      </trkpt>
      <trkpt lat="45.92415" lon="6.52602">
        <ele>2283.3</ele>
        <time>2014-02-16T13:18:25Z</time>
      </trkpt>
      <trkpt lat="45.92415" lon="6.526">
        <ele>2283.7</ele>
        <time>2014-02-16T13:18:36Z</time>
      </trkpt>
      <trkpt lat="45.92413" lon="6.52597">
        <ele>2281.3</ele>
        <time>2014-02-16T13:18:45Z</time>
      </trkpt>
      <trkpt lat="45.92413" lon="6.52597">
        <ele>2280.4</ele>
        <time>2014-02-16T13:19:10Z</time>
      </trkpt>
      <trkpt lat="45.92413" lon="6.52597">
        <ele>2279.4</ele>
        <time>2014-02-16T13:20:04Z</time>
      </trkpt>
      <trkpt lat="45.92413" lon="6.52597">
        <ele>2279.4</ele>
        <time>2014-02-16T13:20:44Z</time>
      </trkpt>
      <trkpt lat="45.92413" lon="6.52597">
        <ele>2279.4</ele>
        <time>2014-02-16T13:21:35Z</time>
      </trkpt>
      <trkpt lat="45.92412" lon="6.52597">
        <ele>2278.5</ele>
        <time>2014-02-16T13:21:54Z</time>
      </trkpt>
      <trkpt lat="45.9241" lon="6.52584">
        <ele>2276.1</ele>
        <time>2014-02-16T13:21:58Z</time>
      </trkpt>
      <trkpt lat="45.92416" lon="6.52538">
        <ele>2265.5</ele>
        <time>2014-02-16T13:22:05Z</time>
      </trkpt>
      <trkpt lat="45.92417" lon="6.52474">
        <ele>2247.7</ele>
        <time>2014-02-16T13:22:12Z</time>
      </trkpt>
      <trkpt lat="45.92411" lon="6.52422">
        <ele>2240</ele>
        <time>2014-02-16T13:22:22Z</time>
      </trkpt>
      <trkpt lat="45.92411" lon="6.52363">
        <ele>2231.4</ele>
        <time>2014-02-16T13:22:32Z</time>
      </trkpt>
      <trkpt lat="45.92414" lon="6.52342">
        <ele>2228.5</ele>
        <time>2014-02-16T13:22:34Z</time>
      </trkpt>
      <trkpt lat="45.92426" lon="6.52261">
        <ele>2219.3</ele>
        <time>2014-02-16T13:22:44Z</time>
      </trkpt>
      <trkpt lat="45.9243" lon="6.5222">
        <ele>2213.6</ele>
        <time>2014-02-16T13:22:49Z</time>
      </trkpt>
      <trkpt lat="45.92433" lon="6.52172">
        <ele>2210.7</ele>
        <time>2014-02-16T13:23:00Z</time>
      </trkpt>
      <trkpt lat="45.92444" lon="6.52099">
        <ele>2202.5</ele>
        <time>2014-02-16T13:23:13Z</time>
      </trkpt>
      <trkpt lat="45.92431" lon="6.52017">
        <ele>2192.4</ele>
        <time>2014-02-16T13:23:22Z</time>
      </trkpt>
      <trkpt lat="45.92433" lon="6.52002">
        <ele>2183.8</ele>
        <time>2014-02-16T13:23:29Z</time>
      </trkpt>
      <trkpt lat="45.9244" lon="6.5197">
        <ele>2180.4</ele>
        <time>2014-02-16T13:23:39Z</time>
      </trkpt>
      <trkpt lat="45.92473" lon="6.51947">
        <ele>2178</ele>
        <time>2014-02-16T13:23:49Z</time>
      </trkpt>
      <trkpt lat="45.92473" lon="6.51947">
        <ele>2178</ele>
        <time>2014-02-16T13:24:21Z</time>
      </trkpt>
      <trkpt lat="45.92495" lon="6.51981">
        <ele>2178</ele>
        <time>2014-02-16T13:24:28Z</time>
      </trkpt>
      <trkpt lat="45.92481" lon="6.51945">
        <ele>2175.6</ele>
        <time>2014-02-16T13:24:31Z</time>
      </trkpt>
      <trkpt lat="45.92485" lon="6.5191">
        <ele>2166.9</ele>
        <time>2014-02-16T13:24:38Z</time>
      </trkpt>
      <trkpt lat="45.92485" lon="6.5191">
        <ele>2161.2</ele>
        <time>2014-02-16T13:24:42Z</time>
      </trkpt>
      <trkpt lat="45.92552" lon="6.51907">
        <ele>2153</ele>
        <time>2014-02-16T13:24:48Z</time>
      </trkpt>
      <trkpt lat="45.926" lon="6.51818">
        <ele>2138.1</ele>
        <time>2014-02-16T13:24:56Z</time>
      </trkpt>
      <trkpt lat="45.92601" lon="6.5182">
        <ele>2124.7</ele>
        <time>2014-02-16T13:25:01Z</time>
      </trkpt>
      <trkpt lat="45.92609" lon="6.51814">
        <ele>2107.8</ele>
        <time>2014-02-16T13:25:05Z</time>
      </trkpt>
      <trkpt lat="45.92609" lon="6.51804">
        <ele>2104.9</ele>
        <time>2014-02-16T13:25:12Z</time>
      </trkpt>
      <trkpt lat="45.92609" lon="6.51804">
        <ele>2104</ele>
        <time>2014-02-16T13:25:32Z</time>
      </trkpt>
      <trkpt lat="45.92609" lon="6.51804">
        <ele>2104</ele>
        <time>2014-02-16T13:26:03Z</time>
      </trkpt>
      <trkpt lat="45.92609" lon="6.51804">
        <ele>2104</ele>
        <time>2014-02-16T13:26:26Z</time>
      </trkpt>
      <trkpt lat="45.92611" lon="6.51789">
        <ele>2099.2</ele>
        <time>2014-02-16T13:26:30Z</time>
      </trkpt>
      <trkpt lat="45.92633" lon="6.51781">
        <ele>2089.1</ele>
        <time>2014-02-16T13:26:34Z</time>
      </trkpt>
      <trkpt lat="45.92639" lon="6.51771">
        <ele>2086.2</ele>
        <time>2014-02-16T13:26:36Z</time>
      </trkpt>
      <trkpt lat="45.92639" lon="6.51762">
        <ele>2086.2</ele>
        <time>2014-02-16T13:26:45Z</time>
      </trkpt>
      <trkpt lat="45.9264" lon="6.51759">
        <ele>2084.8</ele>
        <time>2014-02-16T13:26:53Z</time>
      </trkpt>
      <trkpt lat="45.92622" lon="6.51764">
        <ele>2070.8</ele>
        <time>2014-02-16T13:26:59Z</time>
      </trkpt>
      <trkpt lat="45.92652" lon="6.51775">
        <ele>2057.4</ele>
        <time>2014-02-16T13:27:03Z</time>
      </trkpt>
      <trkpt lat="45.92658" lon="6.51675">
        <ele>2043.4</ele>
        <time>2014-02-16T13:27:06Z</time>
      </trkpt>
      <trkpt lat="45.92666" lon="6.51667">
        <ele>2028.5</ele>
        <time>2014-02-16T13:27:10Z</time>
      </trkpt>
      <trkpt lat="45.92673" lon="6.51659">
        <ele>2027.1</ele>
        <time>2014-02-16T13:27:21Z</time>
      </trkpt>
      <trkpt lat="45.92673" lon="6.51659">
        <ele>2027.6</ele>
        <time>2014-02-16T13:27:38Z</time>
      </trkpt>
      <trkpt lat="45.92671" lon="6.51649">
        <ele>2024.7</ele>
        <time>2014-02-16T13:27:41Z</time>
      </trkpt>
      <trkpt lat="45.9267" lon="6.51636">
        <ele>2019.9</ele>
        <time>2014-02-16T13:27:43Z</time>
      </trkpt>
      <trkpt lat="45.92671" lon="6.51608">
        <ele>2006.9</ele>
        <time>2014-02-16T13:27:50Z</time>
      </trkpt>
      <trkpt lat="45.9267" lon="6.51607">
        <ele>2006.4</ele>
        <time>2014-02-16T13:28:07Z</time>
      </trkpt>
      <trkpt lat="45.9267" lon="6.51606">
        <ele>2006.4</ele>
        <time>2014-02-16T13:28:27Z</time>
      </trkpt>
      <trkpt lat="45.9267" lon="6.51605">
        <ele>2005.9</ele>
        <time>2014-02-16T13:28:45Z</time>
      </trkpt>
      <trkpt lat="45.92671" lon="6.51603">
        <ele>2004.5</ele>
        <time>2014-02-16T13:29:04Z</time>
      </trkpt>
      <trkpt lat="45.9267" lon="6.516">
        <ele>2002.6</ele>
        <time>2014-02-16T13:29:13Z</time>
      </trkpt>
      <trkpt lat="45.92671" lon="6.51588">
        <ele>2000.2</ele>
        <time>2014-02-16T13:29:17Z</time>
      </trkpt>
      <trkpt lat="45.92669" lon="6.51551">
        <ele>1994.9</ele>
        <time>2014-02-16T13:29:31Z</time>
      </trkpt>
      <trkpt lat="45.92669" lon="6.51551">
        <ele>1994.4</ele>
        <time>2014-02-16T13:30:14Z</time>
      </trkpt>
      <trkpt lat="45.92667" lon="6.51527">
        <ele>1988.1</ele>
        <time>2014-02-16T13:30:28Z</time>
      </trkpt>
      <trkpt lat="45.92685" lon="6.51503">
        <ele>1983.8</ele>
        <time>2014-02-16T13:30:32Z</time>
      </trkpt>
      <trkpt lat="45.92728" lon="6.51456">
        <ele>1975.2</ele>
        <time>2014-02-16T13:30:40Z</time>
      </trkpt>
      <trkpt lat="45.92738" lon="6.51429">
        <ele>1968</ele>
        <time>2014-02-16T13:30:44Z</time>
      </trkpt>
      <trkpt lat="45.9275" lon="6.51385">
        <ele>1950.7</ele>
        <time>2014-02-16T13:30:49Z</time>
      </trkpt>
      <trkpt lat="45.92749" lon="6.51356">
        <ele>1944.9</ele>
        <time>2014-02-16T13:30:56Z</time>
      </trkpt>
      <trkpt lat="45.9275" lon="6.51356">
        <ele>1943</ele>
        <time>2014-02-16T13:31:18Z</time>
      </trkpt>
      <trkpt lat="45.9275" lon="6.51356">
        <ele>1942.5</ele>
        <time>2014-02-16T13:31:50Z</time>
      </trkpt>
      <trkpt lat="45.9275" lon="6.51356">
        <ele>1942.5</ele>
        <time>2014-02-16T13:32:00Z</time>
      </trkpt>
      <trkpt lat="45.92773" lon="6.51329">
        <ele>1921.3</ele>
        <time>2014-02-16T13:32:08Z</time>
      </trkpt>
      <trkpt lat="45.9279" lon="6.5131">
        <ele>1905</ele>
        <time>2014-02-16T13:32:12Z</time>
      </trkpt>
      <trkpt lat="45.92806" lon="6.51279">
        <ele>1883.4</ele>
        <time>2014-02-16T13:32:17Z</time>
      </trkpt>
      <trkpt lat="45.9281" lon="6.5127">
        <ele>1878.6</ele>
        <time>2014-02-16T13:32:18Z</time>
      </trkpt>
      <trkpt lat="45.92835" lon="6.51232">
        <ele>1857.4</ele>
        <time>2014-02-16T13:32:24Z</time>
      </trkpt>
      <trkpt lat="45.92834" lon="6.51194">
        <ele>1848.3</ele>
        <time>2014-02-16T13:32:31Z</time>
      </trkpt>
      <trkpt lat="45.92834" lon="6.51195">
        <ele>1846.8</ele>
        <time>2014-02-16T13:34:07Z</time>
      </trkpt>
      <trkpt lat="45.92834" lon="6.51195">
        <ele>1846.3</ele>
        <time>2014-02-16T13:34:59Z</time>
      </trkpt>
      <trkpt lat="45.92833" lon="6.51192">
        <ele>1845.9</ele>
        <time>2014-02-16T13:35:47Z</time>
      </trkpt>
      <trkpt lat="45.92833" lon="6.5119">
        <ele>1845.9</ele>
        <time>2014-02-16T13:36:18Z</time>
      </trkpt>
      <trkpt lat="45.9283" lon="6.51174">
        <ele>1841.5</ele>
        <time>2014-02-16T13:36:24Z</time>
      </trkpt>
      <trkpt lat="45.92824" lon="6.51101">
        <ele>1827.6</ele>
        <time>2014-02-16T13:36:37Z</time>
      </trkpt>
      <trkpt lat="45.92825" lon="6.51096">
        <ele>1826.6</ele>
        <time>2014-02-16T13:36:42Z</time>
      </trkpt>
      <trkpt lat="45.92827" lon="6.51091">
        <ele>1825.2</ele>
        <time>2014-02-16T13:36:45Z</time>
      </trkpt>
      <trkpt lat="45.92829" lon="6.5106">
        <ele>1819.9</ele>
        <time>2014-02-16T13:36:56Z</time>
      </trkpt>
      <trkpt lat="45.92838" lon="6.51023">
        <ele>1817</ele>
        <time>2014-02-16T13:37:06Z</time>
      </trkpt>
      <trkpt lat="45.92852" lon="6.50995">
        <ele>1813.2</ele>
        <time>2014-02-16T13:37:16Z</time>
      </trkpt>
      <trkpt lat="45.92854" lon="6.50991">
        <ele>1812.7</ele>
        <time>2014-02-16T13:37:34Z</time>
      </trkpt>
      <trkpt lat="45.92858" lon="6.50982">
        <ele>1812.7</ele>
        <time>2014-02-16T13:37:51Z</time>
      </trkpt>
      <trkpt lat="45.92859" lon="6.50971">
        <ele>1811.7</ele>
        <time>2014-02-16T13:38:05Z</time>
      </trkpt>
      <trkpt lat="45.92859" lon="6.50966">
        <ele>1811.3</ele>
        <time>2014-02-16T13:38:21Z</time>
      </trkpt>
      <trkpt lat="45.92868" lon="6.50937">
        <ele>1806</ele>
        <time>2014-02-16T13:38:29Z</time>
      </trkpt>
      <trkpt lat="45.92888" lon="6.50864">
        <ele>1794.9</ele>
        <time>2014-02-16T13:38:39Z</time>
      </trkpt>
      <trkpt lat="45.92888" lon="6.50861">
        <ele>1794</ele>
        <time>2014-02-16T13:38:55Z</time>
      </trkpt>
      <trkpt lat="45.92888" lon="6.50862">
        <ele>1794</ele>
        <time>2014-02-16T13:39:20Z</time>
      </trkpt>
      <trkpt lat="45.92888" lon="6.50862">
        <ele>1794</ele>
        <time>2014-02-16T13:40:03Z</time>
      </trkpt>
      <trkpt lat="45.92888" lon="6.50862">
        <ele>1793.5</ele>
        <time>2014-02-16T13:40:55Z</time>
      </trkpt>
      <trkpt lat="45.92886" lon="6.50853">
        <ele>1791.6</ele>
        <time>2014-02-16T13:41:31Z</time>
      </trkpt>
      <trkpt lat="45.92882" lon="6.50841">
        <ele>1788.7</ele>
        <time>2014-02-16T13:41:33Z</time>
      </trkpt>
      <trkpt lat="45.92881" lon="6.50828">
        <ele>1782.4</ele>
        <time>2014-02-16T13:41:35Z</time>
      </trkpt>
      <trkpt lat="45.92894" lon="6.50778">
        <ele>1762.2</ele>
        <time>2014-02-16T13:41:42Z</time>
      </trkpt>
      <trkpt lat="45.92899" lon="6.50768">
        <ele>1755.5</ele>
        <time>2014-02-16T13:41:44Z</time>
      </trkpt>
      <trkpt lat="45.92905" lon="6.50736">
        <ele>1739.6</ele>
        <time>2014-02-16T13:41:50Z</time>
      </trkpt>
      <trkpt lat="45.92904" lon="6.50736">
        <ele>1739.2</ele>
        <time>2014-02-16T13:42:10Z</time>
      </trkpt>
      <trkpt lat="45.92905" lon="6.50728">
        <ele>1736.3</ele>
        <time>2014-02-16T13:42:13Z</time>
      </trkpt>
      <trkpt lat="45.92912" lon="6.50694">
        <ele>1719.9</ele>
        <time>2014-02-16T13:42:19Z</time>
      </trkpt>
      <trkpt lat="45.92905" lon="6.50658">
        <ele>1711.8</ele>
        <time>2014-02-16T13:42:24Z</time>
      </trkpt>
      <trkpt lat="45.92904" lon="6.50643">
        <ele>1708.9</ele>
        <time>2014-02-16T13:42:28Z</time>
      </trkpt>
      <trkpt lat="45.92912" lon="6.50631">
        <ele>1702.2</ele>
        <time>2014-02-16T13:42:34Z</time>
      </trkpt>
      <trkpt lat="45.92911" lon="6.50631">
        <ele>1702.6</ele>
        <time>2014-02-16T13:42:43Z</time>
      </trkpt>
      <trkpt lat="45.92944" lon="6.5059">
        <ele>1699.7</ele>
        <time>2014-02-16T13:42:47Z</time>
      </trkpt>
      <trkpt lat="45.92933" lon="6.50545">
        <ele>1693.5</ele>
        <time>2014-02-16T13:42:55Z</time>
      </trkpt>
      <trkpt lat="45.92933" lon="6.50545">
        <ele>1692.5</ele>
        <time>2014-02-16T13:43:05Z</time>
      </trkpt>
      <trkpt lat="45.92925" lon="6.50528">
        <ele>1690.6</ele>
        <time>2014-02-16T13:43:12Z</time>
      </trkpt>
      <trkpt lat="45.92909" lon="6.5051">
        <ele>1685.3</ele>
        <time>2014-02-16T13:43:23Z</time>
      </trkpt>
      <trkpt lat="45.92898" lon="6.50493">
        <ele>1680</ele>
        <time>2014-02-16T13:43:31Z</time>
      </trkpt>
      <trkpt lat="45.92898" lon="6.50493">
        <ele>1679.6</ele>
        <time>2014-02-16T13:43:45Z</time>
      </trkpt>
      <trkpt lat="45.92887" lon="6.50486">
        <ele>1676.7</ele>
        <time>2014-02-16T13:43:58Z</time>
      </trkpt>
      <trkpt lat="45.92887" lon="6.50486">
        <ele>1676.2</ele>
        <time>2014-02-16T13:44:19Z</time>
      </trkpt>
      <trkpt lat="45.92887" lon="6.50486">
        <ele>1676.2</ele>
        <time>2014-02-16T13:46:54Z</time>
      </trkpt>
      <trkpt lat="45.92877" lon="6.50486">
        <ele>1674.8</ele>
        <time>2014-02-16T13:46:56Z</time>
      </trkpt>
      <trkpt lat="45.92869" lon="6.50487">
        <ele>1670.9</ele>
        <time>2014-02-16T13:47:00Z</time>
      </trkpt>
      <trkpt lat="45.92846" lon="6.50473">
        <ele>1668</ele>
        <time>2014-02-16T13:47:03Z</time>
      </trkpt>
      <trkpt lat="45.9286" lon="6.50415">
        <ele>1661.8</ele>
        <time>2014-02-16T13:47:09Z</time>
      </trkpt>
      <trkpt lat="45.92869" lon="6.50354">
        <ele>1655.5</ele>
        <time>2014-02-16T13:47:15Z</time>
      </trkpt>
      <trkpt lat="45.92837" lon="6.50346">
        <ele>1645.9</ele>
        <time>2014-02-16T13:47:24Z</time>
      </trkpt>
      <trkpt lat="45.92837" lon="6.50346">
        <ele>1645.9</ele>
        <time>2014-02-16T13:47:38Z</time>
      </trkpt>
      <trkpt lat="45.9283" lon="6.50322">
        <ele>1635.8</ele>
        <time>2014-02-16T13:47:45Z</time>
      </trkpt>
      <trkpt lat="45.92824" lon="6.50301">
        <ele>1630.1</ele>
        <time>2014-02-16T13:47:48Z</time>
      </trkpt>
      <trkpt lat="45.92819" lon="6.50291">
        <ele>1623.8</ele>
        <time>2014-02-16T13:47:51Z</time>
      </trkpt>
      <trkpt lat="45.92815" lon="6.50279">
        <ele>1619</ele>
        <time>2014-02-16T13:47:53Z</time>
      </trkpt>
      <trkpt lat="45.92813" lon="6.50258">
        <ele>1613.7</ele>
        <time>2014-02-16T13:47:57Z</time>
      </trkpt>
      <trkpt lat="45.92809" lon="6.50238">
        <ele>1610.8</ele>
        <time>2014-02-16T13:47:59Z</time>
      </trkpt>
      <trkpt lat="45.92817" lon="6.50288">
        <ele>1606</ele>
        <time>2014-02-16T13:48:08Z</time>
      </trkpt>
      <trkpt lat="45.92817" lon="6.50288">
        <ele>1606</ele>
        <time>2014-02-16T13:48:24Z</time>
      </trkpt>
      <trkpt lat="45.92835" lon="6.50224">
        <ele>1602.2</ele>
        <time>2014-02-16T13:48:28Z</time>
      </trkpt>
      <trkpt lat="45.92843" lon="6.50207">
        <ele>1595.9</ele>
        <time>2014-02-16T13:48:38Z</time>
      </trkpt>
      <trkpt lat="45.92843" lon="6.50206">
        <ele>1594.5</ele>
        <time>2014-02-16T13:48:47Z</time>
      </trkpt>
      <trkpt lat="45.92794" lon="6.50206">
        <ele>1588.7</ele>
        <time>2014-02-16T13:48:53Z</time>
      </trkpt>
      <trkpt lat="45.92792" lon="6.50202">
        <ele>1584.9</ele>
        <time>2014-02-16T13:48:56Z</time>
      </trkpt>
      <trkpt lat="45.92788" lon="6.50198">
        <ele>1574.3</ele>
        <time>2014-02-16T13:49:02Z</time>
      </trkpt>
      <trkpt lat="45.92788" lon="6.50198">
        <ele>1574.3</ele>
        <time>2014-02-16T13:49:23Z</time>
      </trkpt>
      <trkpt lat="45.92787" lon="6.50198">
        <ele>1571.9</ele>
        <time>2014-02-16T13:49:27Z</time>
      </trkpt>
      <trkpt lat="45.92819" lon="6.50107">
        <ele>1562.8</ele>
        <time>2014-02-16T13:49:31Z</time>
      </trkpt>
      <trkpt lat="45.92821" lon="6.5009">
        <ele>1550.7</ele>
        <time>2014-02-16T13:49:37Z</time>
      </trkpt>
      <trkpt lat="45.92821" lon="6.50089">
        <ele>1548.3</ele>
        <time>2014-02-16T13:49:56Z</time>
      </trkpt>
      <trkpt lat="45.92821" lon="6.50089">
        <ele>1547.4</ele>
        <time>2014-02-16T13:51:00Z</time>
      </trkpt>
      <trkpt lat="45.92821" lon="6.50089">
        <ele>1547.4</ele>
        <time>2014-02-16T13:51:42Z</time>
      </trkpt>
      <trkpt lat="45.92821" lon="6.50089">
        <ele>1547.4</ele>
        <time>2014-02-16T13:52:00Z</time>
      </trkpt>
      <trkpt lat="45.92828" lon="6.50084">
        <ele>1545</ele>
        <time>2014-02-16T13:52:03Z</time>
      </trkpt>
      <trkpt lat="45.92834" lon="6.50064">
        <ele>1539.7</ele>
        <time>2014-02-16T13:52:06Z</time>
      </trkpt>
      <trkpt lat="45.92831" lon="6.50039">
        <ele>1536.3</ele>
        <time>2014-02-16T13:52:09Z</time>
      </trkpt>
      <trkpt lat="45.92833" lon="6.49949">
        <ele>1520.5</ele>
        <time>2014-02-16T13:52:20Z</time>
      </trkpt>
      <trkpt lat="45.92843" lon="6.49873">
        <ele>1501.2</ele>
        <time>2014-02-16T13:52:31Z</time>
      </trkpt>
      <trkpt lat="45.92828" lon="6.49816">
        <ele>1485.4</ele>
        <time>2014-02-16T13:52:41Z</time>
      </trkpt>
      <trkpt lat="45.92825" lon="6.49798">
        <ele>1481</ele>
        <time>2014-02-16T13:52:44Z</time>
      </trkpt>
      <trkpt lat="45.92837" lon="6.4974">
        <ele>1470</ele>
        <time>2014-02-16T13:52:51Z</time>
      </trkpt>
      <trkpt lat="45.92846" lon="6.49722">
        <ele>1467.1</ele>
        <time>2014-02-16T13:52:53Z</time>
      </trkpt>
      <trkpt lat="45.9286" lon="6.49682">
        <ele>1462.3</ele>
        <time>2014-02-16T13:53:01Z</time>
      </trkpt>
      <trkpt lat="45.92861" lon="6.49683">
        <ele>1461.3</ele>
        <time>2014-02-16T13:53:36Z</time>
      </trkpt>
      <trkpt lat="45.92861" lon="6.49683">
        <ele>1460.9</ele>
        <time>2014-02-16T13:54:03Z</time>
      </trkpt>
      <trkpt lat="45.92864" lon="6.49676">
        <ele>1460.4</ele>
        <time>2014-02-16T13:54:30Z</time>
      </trkpt>
      <trkpt lat="45.92868" lon="6.49664">
        <ele>1460.9</ele>
        <time>2014-02-16T13:54:48Z</time>
      </trkpt>
      <trkpt lat="45.9287" lon="6.49651">
        <ele>1460.9</ele>
        <time>2014-02-16T13:55:07Z</time>
      </trkpt>
      <trkpt lat="45.92868" lon="6.49638">
        <ele>1461.3</ele>
        <time>2014-02-16T13:55:27Z</time>
      </trkpt>
      <trkpt lat="45.92867" lon="6.49632">
        <ele>1461.8</ele>
        <time>2014-02-16T13:55:41Z</time>
      </trkpt>
      <trkpt lat="45.92867" lon="6.49625">
        <ele>1462.3</ele>
        <time>2014-02-16T13:55:56Z</time>
      </trkpt>
      <trkpt lat="45.92866" lon="6.49619">
        <ele>1463.3</ele>
        <time>2014-02-16T13:56:12Z</time>
      </trkpt>
      <trkpt lat="45.92863" lon="6.49612">
        <ele>1464.2</ele>
        <time>2014-02-16T13:56:29Z</time>
      </trkpt>
      <trkpt lat="45.9286" lon="6.49607">
        <ele>1465.7</ele>
        <time>2014-02-16T13:56:46Z</time>
      </trkpt>
      <trkpt lat="45.92859" lon="6.49604">
        <ele>1465.2</ele>
        <time>2014-02-16T13:57:03Z</time>
      </trkpt>
      <trkpt lat="45.92858" lon="6.49602">
        <ele>1463.7</ele>
        <time>2014-02-16T13:57:14Z</time>
      </trkpt>
      <trkpt lat="45.92857" lon="6.49598">
        <ele>1464.2</ele>
        <time>2014-02-16T13:57:25Z</time>
      </trkpt>
      <trkpt lat="45.92856" lon="6.49597">
        <ele>1465.2</ele>
        <time>2014-02-16T13:57:34Z</time>
      </trkpt>
      <trkpt lat="45.92856" lon="6.49595">
        <ele>1465.7</ele>
        <time>2014-02-16T13:57:45Z</time>
      </trkpt>
      <trkpt lat="45.92856" lon="6.4959">
        <ele>1464.7</ele>
        <time>2014-02-16T13:57:54Z</time>
      </trkpt>
      <trkpt lat="45.92856" lon="6.49589">
        <ele>1465.7</ele>
        <time>2014-02-16T13:57:58Z</time>
      </trkpt>
      <trkpt lat="45.92857" lon="6.49587">
        <ele>1466.1</ele>
        <time>2014-02-16T13:58:09Z</time>
      </trkpt>
      <trkpt lat="45.92858" lon="6.49584">
        <ele>1466.6</ele>
        <time>2014-02-16T13:58:18Z</time>
      </trkpt>
      <trkpt lat="45.92858" lon="6.49581">
        <ele>1467.1</ele>
        <time>2014-02-16T13:58:30Z</time>
      </trkpt>
      <trkpt lat="45.92858" lon="6.4958">
        <ele>1466.6</ele>
        <time>2014-02-16T13:58:42Z</time>
      </trkpt>
      <trkpt lat="45.92859" lon="6.49576">
        <ele>1467.6</ele>
        <time>2014-02-16T13:58:54Z</time>
      </trkpt>
      <trkpt lat="45.92858" lon="6.49573">
        <ele>1467.6</ele>
        <time>2014-02-16T13:59:05Z</time>
      </trkpt>
      <trkpt lat="45.92858" lon="6.49571">
        <ele>1467.6</ele>
        <time>2014-02-16T13:59:19Z</time>
      </trkpt>
      <trkpt lat="45.92859" lon="6.4957">
        <ele>1466.1</ele>
        <time>2014-02-16T13:59:30Z</time>
      </trkpt>
      <trkpt lat="45.92861" lon="6.49572">
        <ele>1465.2</ele>
        <time>2014-02-16T13:59:56Z</time>
      </trkpt>
      <trkpt lat="45.92861" lon="6.4957">
        <ele>1464.7</ele>
        <time>2014-02-16T14:00:13Z</time>
      </trkpt>
      <trkpt lat="45.92863" lon="6.49568">
        <ele>1465.2</ele>
        <time>2014-02-16T14:00:23Z</time>
      </trkpt>
      <trkpt lat="45.92861" lon="6.49562">
        <ele>1466.1</ele>
        <time>2014-02-16T14:00:34Z</time>
      </trkpt>
      <trkpt lat="45.92856" lon="6.49555">
        <ele>1466.6</ele>
        <time>2014-02-16T14:00:48Z</time>
      </trkpt>
      <trkpt lat="45.9285" lon="6.49547">
        <ele>1469</ele>
        <time>2014-02-16T14:01:06Z</time>
      </trkpt>
      <trkpt lat="45.92846" lon="6.49544">
        <ele>1469</ele>
        <time>2014-02-16T14:01:21Z</time>
      </trkpt>
      <trkpt lat="45.92842" lon="6.49539">
        <ele>1470.5</ele>
        <time>2014-02-16T14:01:32Z</time>
      </trkpt>
      <trkpt lat="45.92835" lon="6.49533">
        <ele>1472.9</ele>
        <time>2014-02-16T14:01:50Z</time>
      </trkpt>
      <trkpt lat="45.92829" lon="6.49521">
        <ele>1475.3</ele>
        <time>2014-02-16T14:02:07Z</time>
      </trkpt>
      <trkpt lat="45.92826" lon="6.49517">
        <ele>1474.8</ele>
        <time>2014-02-16T14:02:13Z</time>
      </trkpt>
      <trkpt lat="45.92821" lon="6.49512">
        <ele>1475.3</ele>
        <time>2014-02-16T14:02:24Z</time>
      </trkpt>
      <trkpt lat="45.92813" lon="6.49502">
        <ele>1475.3</ele>
        <time>2014-02-16T14:02:40Z</time>
      </trkpt>
      <trkpt lat="45.92803" lon="6.49497">
        <ele>1475.8</ele>
        <time>2014-02-16T14:03:00Z</time>
      </trkpt>
      <trkpt lat="45.92793" lon="6.49496">
        <ele>1475.8</ele>
        <time>2014-02-16T14:03:18Z</time>
      </trkpt>
      <trkpt lat="45.92783" lon="6.49489">
        <ele>1477.7</ele>
        <time>2014-02-16T14:03:36Z</time>
      </trkpt>
      <trkpt lat="45.92777" lon="6.49482">
        <ele>1479.6</ele>
        <time>2014-02-16T14:03:55Z</time>
      </trkpt>
      <trkpt lat="45.92771" lon="6.49472">
        <ele>1481</ele>
        <time>2014-02-16T14:04:14Z</time>
      </trkpt>
      <trkpt lat="45.92763" lon="6.49465">
        <ele>1483</ele>
        <time>2014-02-16T14:04:33Z</time>
      </trkpt>
      <trkpt lat="45.92755" lon="6.49457">
        <ele>1485.4</ele>
        <time>2014-02-16T14:04:55Z</time>
      </trkpt>
      <trkpt lat="45.92752" lon="6.49458">
        <ele>1484.9</ele>
        <time>2014-02-16T14:05:08Z</time>
      </trkpt>
      <trkpt lat="45.92752" lon="6.49457">
        <ele>1484.4</ele>
        <time>2014-02-16T14:05:50Z</time>
      </trkpt>
      <trkpt lat="45.92752" lon="6.49458">
        <ele>1484.9</ele>
        <time>2014-02-16T14:06:20Z</time>
      </trkpt>
      <trkpt lat="45.92752" lon="6.49457">
        <ele>1484.4</ele>
        <time>2014-02-16T14:06:56Z</time>
      </trkpt>
      <trkpt lat="45.92751" lon="6.4946">
        <ele>1483.9</ele>
        <time>2014-02-16T14:07:17Z</time>
      </trkpt>
      <trkpt lat="45.92751" lon="6.4946">
        <ele>1484.4</ele>
        <time>2014-02-16T14:09:54Z</time>
      </trkpt>
      <trkpt lat="45.92752" lon="6.49458">
        <ele>1483.5</ele>
        <time>2014-02-16T14:10:12Z</time>
      </trkpt>
      <trkpt lat="45.92752" lon="6.49459">
        <ele>1483</ele>
        <time>2014-02-16T14:10:28Z</time>
      </trkpt>
      <trkpt lat="45.92752" lon="6.49459">
        <ele>1483</ele>
        <time>2014-02-16T14:11:07Z</time>
      </trkpt>
      <trkpt lat="45.92752" lon="6.49459">
        <ele>1482.5</ele>
        <time>2014-02-16T14:11:30Z</time>
      </trkpt>
      <trkpt lat="45.9275" lon="6.49454">
        <ele>1482</ele>
        <time>2014-02-16T14:12:17Z</time>
      </trkpt>
      <trkpt lat="45.92748" lon="6.49446">
        <ele>1481</ele>
        <time>2014-02-16T14:12:33Z</time>
      </trkpt>
      <trkpt lat="45.92747" lon="6.49446">
        <ele>1481</ele>
        <time>2014-02-16T14:12:49Z</time>
      </trkpt>
      <trkpt lat="45.92739" lon="6.49421">
        <ele>1479.6</ele>
        <time>2014-02-16T14:13:06Z</time>
      </trkpt>
      <trkpt lat="45.92734" lon="6.49396">
        <ele>1478.2</ele>
        <time>2014-02-16T14:13:19Z</time>
      </trkpt>
      <trkpt lat="45.92733" lon="6.49394">
        <ele>1478.2</ele>
        <time>2014-02-16T14:13:20Z</time>
      </trkpt>
      <trkpt lat="45.92723" lon="6.49376">
        <ele>1475.8</ele>
        <time>2014-02-16T14:13:34Z</time>
      </trkpt>
      <trkpt lat="45.92716" lon="6.49361">
        <ele>1471.4</ele>
        <time>2014-02-16T14:13:42Z</time>
      </trkpt>
      <trkpt lat="45.92701" lon="6.49305">
        <ele>1469</ele>
        <time>2014-02-16T14:13:54Z</time>
      </trkpt>
      <trkpt lat="45.92678" lon="6.49278">
        <ele>1468.6</ele>
        <time>2014-02-16T14:14:06Z</time>
      </trkpt>
      <trkpt lat="45.92678" lon="6.49278">
        <ele>1468.1</ele>
        <time>2014-02-16T14:14:22Z</time>
      </trkpt>
      <trkpt lat="45.92678" lon="6.49278">
        <ele>1469</ele>
        <time>2014-02-16T14:14:38Z</time>
      </trkpt>
      <trkpt lat="45.92678" lon="6.49278">
        <ele>1471</ele>
        <time>2014-02-16T14:15:01Z</time>
      </trkpt>
      <trkpt lat="45.92678" lon="6.49278">
        <ele>1471.9</ele>
        <time>2014-02-16T14:15:14Z</time>
      </trkpt>
      <trkpt lat="45.92631" lon="6.49247">
        <ele>1471.4</ele>
        <time>2014-02-16T14:15:29Z</time>
      </trkpt>
      <trkpt lat="45.92631" lon="6.49247">
        <ele>1471.9</ele>
        <time>2014-02-16T14:15:49Z</time>
      </trkpt>
      <trkpt lat="45.92601" lon="6.49225">
        <ele>1472.9</ele>
        <time>2014-02-16T14:16:07Z</time>
      </trkpt>
      <trkpt lat="45.92601" lon="6.49225">
        <ele>1474.3</ele>
        <time>2014-02-16T14:16:28Z</time>
      </trkpt>
      <trkpt lat="45.92601" lon="6.49225">
        <ele>1475.8</ele>
        <time>2014-02-16T14:16:53Z</time>
      </trkpt>
      <trkpt lat="45.92601" lon="6.49225">
        <ele>1476.2</ele>
        <time>2014-02-16T14:17:12Z</time>
      </trkpt>
      <trkpt lat="45.92552" lon="6.49219">
        <ele>1475.8</ele>
        <time>2014-02-16T14:17:24Z</time>
      </trkpt>
      <trkpt lat="45.92552" lon="6.49219">
        <ele>1477.7</ele>
        <time>2014-02-16T14:17:38Z</time>
      </trkpt>
      <trkpt lat="45.92552" lon="6.49219">
        <ele>1478.6</ele>
        <time>2014-02-16T14:17:45Z</time>
      </trkpt>
      <trkpt lat="45.92543" lon="6.49217">
        <ele>1477.2</ele>
        <time>2014-02-16T14:17:57Z</time>
      </trkpt>
      <trkpt lat="45.92543" lon="6.49217">
        <ele>1477.7</ele>
        <time>2014-02-16T14:18:11Z</time>
      </trkpt>
      <trkpt lat="45.92543" lon="6.49217">
        <ele>1477.2</ele>
        <time>2014-02-16T14:18:14Z</time>
      </trkpt>
      <trkpt lat="45.92543" lon="6.49217">
        <ele>1477.7</ele>
        <time>2014-02-16T14:18:25Z</time>
      </trkpt>
      <trkpt lat="45.92543" lon="6.49217">
        <ele>1477.7</ele>
        <time>2014-02-16T14:18:39Z</time>
      </trkpt>
      <trkpt lat="45.92543" lon="6.49217">
        <ele>1478.2</ele>
        <time>2014-02-16T14:18:46Z</time>
      </trkpt>
      <trkpt lat="45.92499" lon="6.49194">
        <ele>1478.6</ele>
        <time>2014-02-16T14:18:57Z</time>
      </trkpt>
      <trkpt lat="45.92499" lon="6.49194">
        <ele>1481</ele>
        <time>2014-02-16T14:19:09Z</time>
      </trkpt>
      <trkpt lat="45.92499" lon="6.49194">
        <ele>1482</ele>
        <time>2014-02-16T14:19:25Z</time>
      </trkpt>
      <trkpt lat="45.92499" lon="6.49194">
        <ele>1483.5</ele>
        <time>2014-02-16T14:19:40Z</time>
      </trkpt>
      <trkpt lat="45.9246" lon="6.49141">
        <ele>1482.5</ele>
        <time>2014-02-16T14:19:53Z</time>
      </trkpt>
      <trkpt lat="45.9244" lon="6.49114">
        <ele>1479.1</ele>
        <time>2014-02-16T14:20:02Z</time>
      </trkpt>
      <trkpt lat="45.92421" lon="6.4911">
        <ele>1476.2</ele>
        <time>2014-02-16T14:20:06Z</time>
      </trkpt>
      <trkpt lat="45.92372" lon="6.49113">
        <ele>1468.6</ele>
        <time>2014-02-16T14:20:16Z</time>
      </trkpt>
      <trkpt lat="45.92361" lon="6.49106">
        <ele>1467.1</ele>
        <time>2014-02-16T14:20:18Z</time>
      </trkpt>
      <trkpt lat="45.92345" lon="6.49084">
        <ele>1463.7</ele>
        <time>2014-02-16T14:20:22Z</time>
      </trkpt>
      <trkpt lat="45.92316" lon="6.49066">
        <ele>1458.5</ele>
        <time>2014-02-16T14:20:28Z</time>
      </trkpt>
      <trkpt lat="45.92298" lon="6.49057">
        <ele>1454.1</ele>
        <time>2014-02-16T14:20:32Z</time>
      </trkpt>
      <trkpt lat="45.92256" lon="6.49002">
        <ele>1447.4</ele>
        <time>2014-02-16T14:20:42Z</time>
      </trkpt>
      <trkpt lat="45.92239" lon="6.4898">
        <ele>1446</ele>
        <time>2014-02-16T14:20:53Z</time>
      </trkpt>
      <trkpt lat="45.92213" lon="6.48939">
        <ele>1442.6</ele>
        <time>2014-02-16T14:21:05Z</time>
      </trkpt>
      <trkpt lat="45.92187" lon="6.48906">
        <ele>1441.2</ele>
        <time>2014-02-16T14:21:17Z</time>
      </trkpt>
      <trkpt lat="45.92174" lon="6.48892">
        <ele>1440.2</ele>
        <time>2014-02-16T14:21:28Z</time>
      </trkpt>
      <trkpt lat="45.92168" lon="6.48885">
        <ele>1440.2</ele>
        <time>2014-02-16T14:21:33Z</time>
      </trkpt>
      <trkpt lat="45.92162" lon="6.48878">
        <ele>1440.2</ele>
        <time>2014-02-16T14:21:44Z</time>
      </trkpt>
      <trkpt lat="45.92162" lon="6.48878">
        <ele>1440.2</ele>
        <time>2014-02-16T14:21:50Z</time>
      </trkpt>
      <trkpt lat="45.92165" lon="6.48854">
        <ele>1441.2</ele>
        <time>2014-02-16T14:21:55Z</time>
      </trkpt>
      <trkpt lat="45.92165" lon="6.48854">
        <ele>1442.1</ele>
        <time>2014-02-16T14:22:17Z</time>
      </trkpt>
      <trkpt lat="45.92165" lon="6.48854">
        <ele>1446.9</ele>
        <time>2014-02-16T14:22:37Z</time>
      </trkpt>
      <trkpt lat="45.92165" lon="6.48854">
        <ele>1448.8</ele>
        <time>2014-02-16T14:22:48Z</time>
      </trkpt>
      <trkpt lat="45.92165" lon="6.48854">
        <ele>1450.3</ele>
        <time>2014-02-16T14:23:04Z</time>
      </trkpt>
      <trkpt lat="45.92176" lon="6.48787">
        <ele>1451.2</ele>
        <time>2014-02-16T14:23:20Z</time>
      </trkpt>
      <trkpt lat="45.92176" lon="6.48787">
        <ele>1452.2</ele>
        <time>2014-02-16T14:23:40Z</time>
      </trkpt>
      <trkpt lat="45.92176" lon="6.48787">
        <ele>1455.1</ele>
        <time>2014-02-16T14:24:07Z</time>
      </trkpt>
      <trkpt lat="45.92176" lon="6.48787">
        <ele>1456.1</ele>
        <time>2014-02-16T14:24:31Z</time>
      </trkpt>
      <trkpt lat="45.92176" lon="6.48787">
        <ele>1456.5</ele>
        <time>2014-02-16T14:24:44Z</time>
      </trkpt>
      <trkpt lat="45.92176" lon="6.48787">
        <ele>1456.1</ele>
        <time>2014-02-16T14:24:50Z</time>
      </trkpt>
      <trkpt lat="45.92137" lon="6.48684">
        <ele>1456.1</ele>
        <time>2014-02-16T14:24:59Z</time>
      </trkpt>
      <trkpt lat="45.92127" lon="6.48673">
        <ele>1453.7</ele>
        <time>2014-02-16T14:25:04Z</time>
      </trkpt>
      <trkpt lat="45.92118" lon="6.48641">
        <ele>1452.7</ele>
        <time>2014-02-16T14:25:08Z</time>
      </trkpt>
      <trkpt lat="45.92124" lon="6.48619">
        <ele>1451.7</ele>
        <time>2014-02-16T14:25:18Z</time>
      </trkpt>
      <trkpt lat="45.92136" lon="6.48585">
        <ele>1450.3</ele>
        <time>2014-02-16T14:25:32Z</time>
      </trkpt>
      <trkpt lat="45.92146" lon="6.48547">
        <ele>1449.3</ele>
        <time>2014-02-16T14:25:47Z</time>
      </trkpt>
      <trkpt lat="45.92163" lon="6.48492">
        <ele>1444</ele>
        <time>2014-02-16T14:25:56Z</time>
      </trkpt>
      <trkpt lat="45.92215" lon="6.48434">
        <ele>1435.9</ele>
        <time>2014-02-16T14:26:08Z</time>
      </trkpt>
      <trkpt lat="45.92223" lon="6.48425">
        <ele>1435.9</ele>
        <time>2014-02-16T14:26:11Z</time>
      </trkpt>
      <trkpt lat="45.92238" lon="6.48405">
        <ele>1435.9</ele>
        <time>2014-02-16T14:26:24Z</time>
      </trkpt>
    </trkseg>
  </trk>
</gpx>